Data for 07/30/2007

Time Sea-Level Adjusted Pressure Absolute Pressure Temperature Relative Humidity Dew Point Precipitation   
(mb) (inHg) (mb) (inHg) (C) (F) (%) (C) (F) (mm) (in)
00:01 1019 30.09 848 25.04 19.6 67.2 37 4.5 40.1 0
00:02 1019 30.09 848 25.04 19.6 67.3 36 4.4 39.9 0
00:03 1019 30.09 848 25.04 19.8 67.7 35 4 39.2 0
00:04 1019 30.09 848 25.04 20.1 68.1 35 4.3 39.7 0
00:05 1019 30.09 848 25.04 20.2 68.3 35 4.5 40.1 0
00:06 1019 30.09 848 25.04 20.2 68.3 35 4.5 40.1 0
00:07 1019 30.09 848 25.04 20.1 68.1 36 4.7 40.4 0
00:08 1019 30.09 848 25.04 20.1 68.1 35 4.4 40 0
00:09 1019 30.09 848 25.04 20.2 68.4 33 3.8 38.8 0
00:10 1019 30.09 848 25.04 20.4 68.8 33 3.8 38.8 0
00:11 1019 30.09 848 25.04 20.6 69.1 33 3.9 39.1 0
00:12 1019 30.09 848 25.04 20.7 69.2 33 4.2 39.5 0
00:13 1019 30.09 848 25.04 20.6 69.1 34 4.4 39.9 0
00:14 1019 30.09 848 25.04 20.5 68.9 33 4 39.3 0
00:15 1019 30.09 848 25.04 20.5 68.9 33 4 39.2 0
00:16 1019 30.09 848 25.04 20.6 69 34 4.3 39.8 0
00:17 1019 30.09 848 25.04 20.5 68.9 34 4.5 40 0
00:18 1019 30.09 848 25.04 20.4 68.7 34 4.3 39.7 0
00:19 1019 30.09 848 25.04 20.3 68.6 34 4 39.2 0
00:20 1019 30.09 848 25.04 20.3 68.5 34 4.1 39.3 0
00:21 1019 30.09 848 25.04 20.4 68.6 34 4.1 39.3 0
00:22 1019 30.09 848 25.04 20.4 68.6 34 4.3 39.8 0
00:23 1019 30.09 848 25.04 20.4 68.7 33 3.9 39.1 0
00:24 1019 30.09 848 25.04 20.4 68.8 33 4 39.2 0
00:25 1019 30.09 848 25.04 20.5 68.9 33 3.9 39 0
00:26 1019 30.09 848 25.04 20.6 69.1 32 3.7 38.7 0
00:27 1019 30.09 848 25.04 20.8 69.4 33 4 39.1 0
00:28 1019 30.09 848 25.04 20.8 69.5 32 3.7 38.7 0
00:29 1019 30.09 848 25.04 20.9 69.7 33 4.2 39.5 0
00:30 1019 30.09 848 25.04 20.8 69.5 33 4.2 39.6 0
00:31 1019 30.09 848 25.04 20.7 69.2 33 4 39.3 0
00:32 1019 30.09 848 25.04 20.7 69.3 33 3.8 38.9 0
00:33 1019 30.09 848 25.04 20.8 69.5 33 4 39.1 0
00:34 1019 30.09 848 25.04 20.8 69.5 31 3.5 38.2 0
00:35 1019 30.09 848 25.04 21 69.8 32 3.9 39.1 0
00:36 1019 30.09 848 25.04 21 69.7 31 3.5 38.3 0
00:37 1019 30.09 848 25.04 21.1 69.9 32 3.9 39 0
00:38 1019 30.09 848 25.04 21.1 70 31 3.7 38.6 0
00:39 1019 30.09 848 25.04 21.1 69.9 33 4.5 40.1 0
00:40 1019 30.09 848 25.04 20.8 69.4 34 4.3 39.8 0
00:41 1019 30.09 848 25.04 20.6 69 34 4.3 39.8 0
00:42 1019 30.09 848 25.04 20.3 68.5 34 4.2 39.6 0
00:43 1019 30.09 848 25.04 20.2 68.3 35 4.5 40 0
00:44 1019 30.09 848 25.04 20 68 36 4.6 40.3 0
00:45 1019 30.09 848 25.04 19.7 67.5 37 4.8 40.6 0
00:46 1019 30.09 848 25.04 19.5 67.1 38 5.1 41.1 0
00:47 1019 30.09 848 25.04 19.2 66.5 38 4.8 40.7 0
00:48 1019 30.09 848 25.04 19 66.2 40 5.2 41.4 0
00:49 1019 30.09 848 25.04 18.8 65.8 40 5 41 0
00:50 1019 30.09 848 25.04 18.7 65.7 40 5.2 41.3 0
00:51 1019 30.09 848 25.04 18.7 65.6 41 5.2 41.4 0
00:52 1019 30.09 848 25.04 18.6 65.5 40 4.7 40.5 0
00:53 1019 30.09 848 25.04 18.7 65.7 39 4.7 40.5 0
00:54 1019 30.09 848 25.04 18.8 65.8 39 4.7 40.5 0
00:55 1019 30.09 848 25.04 18.9 65.9 39 4.7 40.5 0
00:56 1019 30.09 848 25.04 18.8 65.9 40 4.9 40.9 0
00:57 1019 30.09 848 25.04 18.8 65.9 39 4.8 40.6 0
00:58 1019 30.09 848 25.04 18.8 65.8 39 4.6 40.3 0
00:59 1019 30.09 848 25.04 18.8 65.9 40 5 41 0
01:00 1019 30.09 848 25.04 18.7 65.6 42 5.8 42.5 0
01:01 1019 30.09 848 25.04 18.2 64.8 44 5.8 42.4 0
01:02 1019 30.09 848 25.04 17.9 64.1 44 5.7 42.3 0
01:03 1019 30.09 848 25.04 17.5 63.5 45 5.6 42 0
01:04 1019 30.09 848 25.04 17.3 63.1 47 5.9 42.6 0
01:05 1019 30.09 848 25.04 17 62.6 47 5.8 42.5 0
01:06 1019 30.09 848 25.04 16.8 62.3 47 5.6 42.1 0
01:07 1019 30.09 848 25.04 16.9 62.4 45 5 41 0
01:08 1019 30.09 848 25.04 17.4 63.3 42 4.4 39.9 0
01:09 1019 30.09 848 25.04 17.9 64.2 41 4.7 40.4 0
01:10 1019 30.09 848 25.04 18.2 64.8 40 4.7 40.4 0
01:11 1019 30.09 848 25.04 18.4 65.1 41 5 41 0
01:12 1019 30.09 848 25.04 18.4 65.1 42 5.3 41.6 0
01:13 1019 30.09 848 25.04 18.2 64.8 43 5.5 41.8 0
01:14 1019 30.09 848 25.04 18 64.5 42 5.2 41.4 0
01:15 1019 30.09 848 25.04 18.1 64.6 41 4.6 40.3 0
01:16 1019 30.09 848 25.04 18.3 65 41 5 41 0
01:17 1019 30.09 848 25.04 18.4 65.2 41 5.2 41.3 0
01:18 1019 30.09 848 25.04 18.5 65.2 41 5.2 41.4 0
01:19 1019 30.09 848 25.04 18.4 65.1 42 5.2 41.4 0
01:20 1019 30.09 848 25.04 18.3 64.9 42 5.2 41.4 0
01:21 1019 30.09 848 25.04 18.1 64.6 42 5 41.1 0
01:22 1019 30.09 848 25.04 18.2 64.7 42 5.2 41.4 0
01:23 1019 30.09 848 25.04 18.1 64.6 43 5.3 41.6 0
01:24 1019 30.09 848 25.04 17.9 64.2 42 5.1 41.2 0
01:25 1019 30.09 848 25.04 18 64.4 41 4.8 40.6 0
01:26 1019 30.09 848 25.04 18.3 65 40 4.8 40.6 0
01:27 1019 30.09 848 25.04 18.6 65.4 39 4.6 40.2 0
01:28 1019 30.09 848 25.04 18.9 66 38 4.4 39.9 0
01:29 1019 30.09 848 25.04 19.2 66.5 37 4.4 39.9 0
01:30 1019 30.09 848 25.04 19.5 67 37 4.5 40.1 0
01:31 1019 30.09 848 25.04 19.5 67.2 37 4.8 40.6 0
01:32 1019 30.09 848 25.04 19.5 67.1 38 5 41 0
01:33 1019 30.09 848 25.04 19.4 67 37 4.6 40.3 0
01:34 1019 30.09 848 25.04 19.4 67 38 4.9 40.7 0
01:35 1019 30.09 848 25.04 19.4 66.8 38 5 41 0
01:36 1019 30.09 848 25.04 19.2 66.5 40 5.2 41.4 0
01:37 1019 30.09 848 25.04 19.1 66.3 41 5.5 42 0
01:38 1019 30.09 848 25.04 18.8 65.8 42 5.7 42.3 0
01:39 1019 30.09 848 25.04 18.4 65.1 43 5.7 42.3 0
01:40 1019 30.09 848 25.04 18 64.3 44 5.6 42 0
01:41 1019 30.09 848 25.04 17.8 64 44 5.5 41.9 0
01:42 1019 30.09 848 25.04 17.7 63.8 44 5.4 41.7 0
01:43 1019 30.09 848 25.04 17.6 63.8 44 5.3 41.6 0
01:44 1019 30.09 848 25.04 17.5 63.5 46 5.9 42.7 0
01:45 1019 30.09 848 25.04 17.2 62.9 46 5.7 42.3 0
01:46 1019 30.09 848 25.04 17.1 62.8 47 5.7 42.3 0
01:47 1019 30.09 848 25.04 17 62.6 47 5.8 42.5 0
01:48 1019 30.09 848 25.04 16.9 62.4 47 5.7 42.3 0
01:49 1019 30.09 848 25.04 16.8 62.2 48 5.9 42.5 0
01:50 1019 30.09 848 25.04 16.6 61.9 47 5.5 41.9 0
01:51 1019 30.09 848 25.04 16.7 62 47 5.5 41.9 0
01:52 1019 30.09 848 25.04 16.8 62.2 46 5.3 41.5 0
01:53 1019 30.09 848 25.04 16.9 62.3 47 5.5 42 0
01:54 1019 30.09 848 25.04 16.9 62.3 46 5.2 41.4 0
01:55 1019 30.09 848 25.04 16.9 62.4 45 5.1 41.2 0
01:56 1019 30.09 848 25.04 17 62.6 45 5.2 41.4 0
01:57 1019 30.09 848 25.04 17.2 62.9 43 4.6 40.2 0
01:58 1019 30.09 848 25.04 17.5 63.5 43 5 41 0
01:59 1019 30.09 848 25.04 17.7 63.8 43 4.9 40.8 0
02:00 1019 30.09 848 25.04 17.7 63.9 43 5.2 41.4 0
02:01 1019 30.09 848 25.04 17.6 63.7 44 5.3 41.5 0
02:02 1019 30.09 848 25.04 17.5 63.4 44 5.3 41.6 0
02:03 1019 30.09 848 25.04 17.3 63.2 45 5.3 41.5 0
02:04 1019 30.09 848 25.04 17.3 63.1 44 5.1 41.3 0
02:05 1019 30.09 848 25.04 17.3 63.2 45 5.4 41.7 0
02:06 1019 30.09 848 25.04 17.3 63.1 45 5.3 41.5 0
02:07 1019 30.09 848 25.04 17.1 62.8 46 5.4 41.7 0
02:08 1019 30.09 848 25.04 16.9 62.5 47 5.7 42.2 0
02:09 1019 30.09 848 25.04 16.6 61.9 49 5.9 42.6 0
02:10 1019 30.09 848 25.04 16.3 61.3 48 5.5 41.8 0
02:11 1019 30.09 848 25.04 16.2 61.1 49 5.5 41.9 0
02:12 1019 30.09 848 25.04 16.2 61.2 48 5.2 41.4 0
02:13 1019 30.09 848 25.04 16.3 61.4 48 5.5 41.9 0
02:14 1019 30.09 848 25.04 16.3 61.3 50 5.8 42.4 0
02:15 1019 30.09 848 25.04 16.1 61 50 5.9 42.5 0
02:16 1019 30.09 848 25.04 16.1 60.9 50 5.8 42.4 0
02:17 1019 30.09 848 25.04 16.1 60.9 48 5.2 41.4 0
02:18 1019 30.09 848 25.04 16.5 61.6 45 4.7 40.5 0
02:19 1019 30.09 848 25.04 17.1 62.7 44 4.8 40.6 0
02:20 1019 30.09 848 25.04 17.6 63.7 42 4.6 40.3 0
02:21 1019 30.09 848 25.04 18 64.4 41 4.8 40.7 0
02:22 1019 30.09 848 25.04 18.2 64.8 41 5 41 0
02:23 1019 30.09 848 25.04 18.3 65 42 5.2 41.3 0
02:24 1019 30.09 848 25.04 18.4 65.1 42 5.2 41.4 0
02:25 1019 30.09 848 25.04 18.4 65.1 41 5.2 41.4 0
02:26 1019 30.09 848 25.04 18.4 65.2 41 5.2 41.4 0
02:27 1019 30.09 848 25.04 18.4 65.1 41 5.1 41.2 0
02:28 1019 30.09 848 25.04 18.5 65.3 40 4.9 40.9 0
02:29 1019 30.09 848 25.04 18.6 65.5 40 4.7 40.5 0
02:30 1019 30.09 848 25.04 18.8 65.8 39 4.8 40.6 0
02:31 1019 30.09 848 25.04 18.9 66 39 4.7 40.5 0
02:32 1019 30.09 848 25.04 19 66.2 38 4.6 40.3 0
02:33 1019 30.09 848 25.04 19.2 66.6 38 4.8 40.7 0
02:34 1019 30.09 848 25.04 19.3 66.8 38 4.6 40.3 0
02:35 1019 30.09 848 25.04 19.5 67.1 37 4.5 40 0
02:36 1019 30.09 848 25.04 19.6 67.3 37 4.8 40.7 0
02:37 1019 30.09 848 25.04 19.7 67.4 36 4.3 39.7 0
02:38 1019 30.09 848 25.04 19.7 67.5 37 4.6 40.3 0
02:39 1019 30.09 848 25.04 19.6 67.4 38 4.9 40.8 0
02:40 1019 30.09 848 25.04 19.5 67.2 36 4.4 39.9 0
02:41 1019 30.09 848 25.04 19.7 67.4 36 4.4 39.9 0
02:42 1019 30.09 848 25.04 19.6 67.3 37 4.8 40.6 0
02:43 1019 30.09 848 25.04 19.4 66.8 38 4.8 40.6 0
02:44 1019 30.09 848 25.04 19 66.3 39 5.1 41.1 0
02:45 1019 30.09 848 25.04 18.6 65.5 41 5.3 41.5 0
02:46 1019 30.09 848 25.04 18.2 64.8 43 5.5 41.9 0
02:47 1019 30.09 848 25.04 17.9 64.1 44 5.6 42.1 0
02:48 1019 30.09 848 25.04 17.5 63.4 45 5.6 42.1 0
02:49 1019 30.09 848 25.04 17.2 62.9 46 5.6 42 0
02:50 1019 30.09 848 25.04 16.9 62.4 46 5.2 41.4 0
02:51 1019 30.09 848 25.04 16.9 62.5 43 4.5 40 0
02:52 1019 30.09 848 25.04 17.3 63.1 42 4.3 39.7 0
02:53 1019 30.09 848 25.04 17.6 63.6 41 4.3 39.8 0
02:54 1019 30.09 848 25.04 17.7 63.9 41 4.3 39.7 0
02:55 1019 30.09 848 25.04 17.8 64 42 4.7 40.4 0
02:56 1019 30.09 848 25.04 17.7 63.9 43 5 41 0
02:57 1019 30.09 848 25.04 17.5 63.5 43 4.9 40.7 0
02:58 1019 30.09 848 25.04 17.4 63.3 43 4.8 40.6 0
02:59 1019 30.09 848 25.04 17.3 63.1 44 5 41 0
03:00 1019 30.09 848 25.04 17.1 62.8 45 5.1 41.2 0
03:01 1019 30.09 848 25.04 16.9 62.5 46 5.4 41.7 0
03:02 1019 30.09 848 25.04 16.6 61.9 47 5.3 41.6 0
03:03 1019 30.09 848 25.04 16.4 61.5 48 5.3 41.6 0
03:04 1019 30.09 848 25.04 16.2 61.2 49 5.6 42.1 0
03:05 1019 30.09 848 25.04 16 60.7 50 5.6 42.1 0
03:06 1019 30.09 848 25.04 15.7 60.2 51 5.7 42.3 0
03:07 1019 30.09 848 25.04 15.4 59.7 53 5.8 42.5 0
03:08 1019 30.09 848 25.04 15.1 59.2 54 5.8 42.5 0
03:09 1019 30.09 848 25.04 15 58.9 54 5.9 42.6 0
03:10 1019 30.09 848 25.04 14.9 58.9 52 5.3 41.6 0
03:11 1019 30.09 848 25.04 15.2 59.3 51 5.1 41.2 0
03:12 1019 30.09 848 25.04 15.5 60 50 5.2 41.3 0
03:13 1019 30.09 848 25.04 15.9 60.5 49 5.2 41.4 0
03:14 1019 30.09 848 25.04 16.2 61.1 47 4.8 40.7 0
03:15 1019 30.09 848 25.04 16.7 62 45 4.6 40.3 0
03:16 1019 30.09 848 25.04 17.2 62.9 43 4.5 40.1 0
03:17 1019 30.09 848 25.04 17.6 63.7 42 4.7 40.4 0
03:18 1019 30.09 848 25.04 17.9 64.2 42 4.9 40.8 0
03:19 1019 30.09 848 25.04 18.1 64.5 41 4.9 40.8 0
03:20 1019 30.09 848 25.04 18.2 64.7 41 4.8 40.7 0
03:21 1019 30.09 848 25.04 18.3 64.9 40 4.7 40.5 0
03:22 1019 30.09 848 25.04 18.4 65 41 4.8 40.7 0
03:23 1019 30.09 848 25.04 18.3 65 41 5 41.1 0
03:24 1019 30.09 848 25.04 18.2 64.7 42 5.1 41.1 0
03:25 1019 30.09 848 25.04 18.1 64.6 42 5.2 41.4 0
03:26 1019 30.09 848 25.04 18 64.4 42 5.1 41.3 0
03:27 1019 30.09 848 25.04 18 64.3 42 5.1 41.1 0
03:28 1019 30.09 848 25.04 17.9 64.2 42 5.1 41.1 0
03:29 1019 30.09 848 25.04 17.9 64.1 43 5.2 41.4 0
03:30 1019 30.09 848 25.04 17.9 64.1 42 5 41 0
03:31 1019 30.09 848 25.04 17.9 64.2 42 4.8 40.7 0
03:32 1019 30.09 848 25.04 18.1 64.5 41 4.6 40.3 0
03:33 1019 30.09 848 25.04 18.2 64.8 41 4.9 40.8 0
03:34 1019 30.09 848 25.04 18.3 65 40 4.6 40.2 0
03:35 1019 30.09 848 25.04 18.5 65.3 39 4.6 40.3 0
03:36 1019 30.09 848 25.04 18.7 65.6 39 4.7 40.5 0
03:37 1019 30.09 848 25.04 18.8 65.8 39 4.6 40.3 0
03:38 1019 30.09 848 25.04 18.9 66 38 4.4 39.9 0
03:39 1019 30.09 848 25.04 19.1 66.3 38 4.4 40 0
03:40 1019 30.09 848 25.04 19.2 66.6 39 5 41 0
03:41 1019 30.09 848 25.04 19.1 66.4 41 5.8 42.4 0
03:42 1019 30.09 848 25.04 18.6 65.6 43 5.9 42.6 0
03:43 1019 30.09 848 25.04 18.2 64.7 44 5.8 42.4 0
03:44 1019 30.09 848 25.04 17.8 64.1 45 5.8 42.4 0
03:45 1019 30.09 848 25.04 17.6 63.6 47 6.1 43 0
03:46 1019 30.09 848 25.04 17.2 63 48 6.2 43.1 0
03:47 1019 30.09 848 25.04 17 62.6 47 5.7 42.2 0
03:48 1019 30.09 848 25.04 16.9 62.4 47 5.6 42.1 0
03:49 1019 30.09 848 25.04 16.9 62.4 47 5.5 41.9 0
03:50 1019 30.09 848 25.04 16.9 62.4 47 5.5 41.9 0
03:51 1019 30.09 848 25.04 16.9 62.4 47 5.6 42 0
03:52 1019 30.09 848 25.04 16.8 62.2 47 5.5 41.8 0
03:53 1019 30.09 848 25.04 16.8 62.2 46 5.4 41.7 0
03:54 1019 30.09 848 25.04 16.8 62.2 46 5.2 41.4 0
03:55 1019 30.09 848 25.04 16.9 62.3 46 5.2 41.3 0
03:56 1019 30.09 848 25.04 17 62.5 46 5.2 41.4 0
03:57 1019 30.09 848 25.04 17 62.7 46 5.3 41.5 0
03:58 1019 30.09 848 25.04 17.1 62.7 46 5.5 41.8 0
03:59 1019 30.09 848 25.04 17 62.6 46 5.4 41.7 0
04:00 1019 30.09 848 25.04 17 62.6 46 5.5 41.9 0
04:01 1019 30.09 848 25.04 17 62.7 47 5.8 42.4 0
04:02 1019 30.09 848 25.04 16.9 62.4 47 5.6 42.1 0
04:03 1019 30.09 848 25.04 16.8 62.2 47 5.4 41.7 0
04:04 1019 30.09 848 25.04 16.9 62.4 47 5.5 41.8 0
04:05 1019 30.09 848 25.04 16.9 62.4 46 5.4 41.7 0
04:06 1019 30.09 848 25.04 16.9 62.4 46 5.4 41.8 0
04:07 1019 30.09 848 25.04 16.9 62.4 47 5.5 42 0
04:08 1019 30.09 848 25.04 16.9 62.3 47 5.6 42.1 0
04:09 1019 30.09 848 25.04 16.8 62.2 47 5.5 42 0
04:10 1019 30.09 848 25.04 16.7 62.1 48 5.7 42.3 0
04:11 1019 30.09 848 25.04 16.6 61.8 49 6 42.8 0
04:12 1019 30.09 848 25.04 16.4 61.4 50 5.9 42.7 0
04:13 1019 30.09 848 25.04 16.2 61.1 50 5.8 42.5 0
04:14 1019 30.09 848 25.04 16.1 61.1 49 5.5 41.9 0
04:15 1019 30.09 848 25.04 16.1 61.1 49 5.4 41.8 0
04:16 1019 30.09 848 25.04 16.1 61 49 5.5 41.9 0
04:17 1019 30.09 848 25.04 16.1 61 49 5.6 42 0
04:18 1019 30.09 848 25.04 16 60.8 50 5.7 42.3 0
04:19 1019 30.09 848 25.04 15.9 60.5 51 5.8 42.5 0
04:20 1019 30.09 848 25.04 15.7 60.2 52 5.9 42.7 0
04:21 1019 30.09 848 25.04 15.5 59.8 52 5.8 42.5 0
04:22 1019 30.09 848 25.04 15.4 59.8 53 5.8 42.5 0
04:23 1019 30.09 848 25.04 15.4 59.6 53 6 42.7 0
04:24 1019 30.09 848 25.04 15.3 59.5 53 5.8 42.5 0
04:25 1019 30.09 848 25.04 15.3 59.6 53 5.9 42.6 0
04:26 1019 30.09 848 25.04 15.3 59.6 54 6 42.9 0
04:27 1019 30.09 848 25.04 15.2 59.3 55 6.2 43.1 0
04:28 1019 30.09 848 25.04 15 59 56 6.3 43.3 0
04:29 1019 30.09 848 25.04 14.9 58.7 56 6.3 43.3 0
04:30 1019 30.09 848 25.04 14.8 58.6 56 6.1 43 0
04:31 1019 30.09 848 25.04 14.8 58.6 56 6.2 43.1 0
04:32 1019 30.09 848 25.04 14.8 58.6 56 6.1 42.9 0
04:33 1019 30.09 848 25.04 14.8 58.7 56 6.1 42.9 0
04:34 1019 30.09 848 25.04 14.9 58.9 55 6 42.9 0
04:35 1019 30.09 848 25.04 14.9 58.9 55 6.1 43 0
04:36 1019 30.09 848 25.04 14.9 58.8 55 6 42.8 0
04:37 1019 30.09 848 25.04 14.9 58.8 55 6.1 43 0
04:38 1019 30.09 848 25.04 14.8 58.7 55 6 42.8 0
04:39 1019 30.09 848 25.04 14.8 58.6 56 6.1 43 0
04:40 1019 30.09 848 25.04 14.7 58.5 57 6.3 43.3 0
04:41 1019 30.09 848 25.04 14.6 58.2 57 6.3 43.4 0
04:42 1019 30.09 848 25.04 14.5 58 58 6.4 43.6 0
04:43 1019 30.09 848 25.04 14.4 58 58 6.4 43.5 0
04:44 1019 30.09 848 25.04 14.4 57.9 58 6.4 43.4 0
04:45 1019 30.09 848 25.04 14.4 57.9 58 6.2 43.2 0
04:46 1019 30.09 848 25.04 14.4 57.9 57 6.1 42.9 0
04:47 1019 30.09 848 25.04 14.5 58.1 56 6 42.9 0
04:48 1019 30.09 848 25.04 14.6 58.2 56 5.9 42.7 0
04:49 1019 30.09 848 25.04 14.6 58.3 56 5.9 42.6 0
04:50 1019 30.09 848 25.04 14.7 58.4 56 6.1 42.9 0
04:51 1019 30.09 848 25.04 14.7 58.4 56 6.2 43.1 0
04:52 1019 30.09 848 25.04 14.6 58.2 56 6.1 43 0
04:53 1019 30.09 848 25.04 14.5 58.2 56 6 42.7 0
04:54 1019 30.09 848 25.04 14.6 58.3 55 5.7 42.2 0
04:55 1019 30.09 848 25.04 14.7 58.5 55 5.8 42.4 0
04:56 1019 30.09 848 25.04 14.8 58.6 55 5.9 42.6 0
04:57 1019 30.09 848 25.04 14.8 58.6 54 5.7 42.3 0
04:58 1019 30.09 848 25.04 14.8 58.7 54 5.7 42.3 0
04:59 1019 30.09 848 25.04 15 59 51 5.1 41.2 0
05:00 1019 30.09 848 25.04 15.3 59.6 51 5.2 41.4 0
05:01 1019 30.09 848 25.04 15.6 60 50 5.2 41.4 0
05:02 1019 30.09 848 25.04 15.8 60.4 49 5.3 41.5 0
05:03 1019 30.09 848 25.04 15.9 60.6 49 5.3 41.5 0
05:04 1019 30.09 848 25.04 16 60.8 48 5.1 41.2 0
05:05 1019 30.09 848 25.04 16.2 61.2 47 5 41.1 0
05:06 1019 30.09 848 25.04 16.4 61.5 47 5.2 41.4 0
05:07 1019 30.09 848 25.04 16.5 61.7 46 5 41 0
05:08 1019 30.09 848 25.04 16.6 61.9 47 5.5 41.8 0
05:09 1019 30.09 848 25.04 16.6 61.8 48 5.7 42.3 0
05:10 1019 30.09 848 25.04 16.5 61.6 48 5.5 42 0
05:11 1019 30.09 848 25.04 16.3 61.4 50 6 42.7 0
05:12 1019 30.09 848 25.04 16.1 61 52 6.3 43.4 0
05:13 1019 30.09 848 25.04 15.8 60.5 53 6.4 43.5 0
05:14 1019 30.09 848 25.04 15.6 60.1 54 6.5 43.7 0
05:15 1019 30.09 848 25.04 15.4 59.7 54 6.3 43.4 0
05:16 1019 30.09 848 25.04 15.3 59.5 55 6.2 43.2 0
05:17 1019 30.09 848 25.04 15.2 59.4 55 6.4 43.6 0
05:18 1019 30.09 848 25.04 15.2 59.3 56 6.6 43.8 0
05:19 1019 30.09 848 25.04 15 59.1 57 6.7 44.1 0
05:20 1019 30.09 848 25.04 15 58.9 57 6.6 44 0
05:21 1019 30.09 848 25.04 14.9 58.7 58 6.7 44 0
05:22 1019 30.09 848 25.04 14.8 58.6 58 6.6 44 0
05:23 1019 30.09 848 25.04 14.8 58.6 57 6.5 43.8 0
05:24 1019 30.09 848 25.04 14.8 58.7 58 6.7 44 0
05:25 1019 30.09 848 25.04 14.8 58.6 57 6.6 43.8 0
05:26 1019 30.09 848 25.04 14.8 58.6 57 6.5 43.7 0
05:27 1019 30.09 848 25.04 14.8 58.6 57 6.5 43.7 0
05:28 1019 30.09 848 25.04 14.8 58.6 58 6.6 43.9 0
05:29 1019 30.09 848 25.04 14.7 58.5 58 6.7 44.1 0
05:30 1019 30.09 848 25.04 14.6 58.3 59 6.8 44.3 0
05:31 1019 30.09 848 25.04 14.5 58.1 60 6.8 44.3 0
05:32 1019 30.09 848 25.04 14.4 57.9 59 6.7 44 0
05:33 1019 30.09 848 25.04 14.4 57.8 59 6.5 43.8 0
05:34 1019 30.09 848 25.04 14.4 57.9 58 6.4 43.5 0
05:35 1019 30.09 848 25.04 14.5 58 57 6 42.9 0
05:36 1019 30.09 848 25.04 14.7 58.4 56 6.1 42.9 0
05:37 1019 30.09 848 25.04 14.8 58.7 55 5.9 42.6 0
05:38 1019 30.09 848 25.04 14.9 58.8 56 6.2 43.2 0
05:39 1019 30.09 848 25.04 14.9 58.8 57 6.6 43.9 0
05:40 1019 30.09 848 25.04 14.7 58.5 58 6.7 44 0
05:41 1019 30.09 848 25.04 14.5 58.2 59 6.6 44 0
05:42 1019 30.09 848 25.04 14.4 57.8 59 6.5 43.7 0
05:43 1019 30.09 848 25.04 14.3 57.7 59 6.4 43.5 0
05:44 1019 30.09 848 25.04 14.3 57.7 58 6.1 43 0
05:45 1019 30.09 848 25.04 14.4 57.8 57 6 42.7 0
05:46 1019 30.09 848 25.04 14.5 58.1 56 5.9 42.7 0
05:47 1019 30.09 848 25.04 14.6 58.3 57 6.1 43.1 0
05:48 1019 30.09 848 25.04 14.6 58.3 57 6.2 43.1 0
05:49 1019 30.09 848 25.04 14.6 58.2 57 6.2 43.1 0
05:50 1019 30.09 848 25.04 14.6 58.2 56 5.9 42.6 0
05:51 1019 30.09 848 25.04 14.7 58.5 54 5.6 42.1 0
05:52 1019 30.09 848 25.04 14.9 58.8 54 5.7 42.2 0
05:53 1019 30.09 848 25.04 15 58.9 56 6.3 43.3 0
05:54 1019 30.09 848 25.04 14.7 58.5 57 6.3 43.3 0
05:55 1019 30.09 848 25.04 14.4 57.9 58 6.2 43.2 0
05:56 1019 30.09 848 25.04 14.2 57.6 58 6.2 43.1 0
05:57 1019 30.09 848 25.04 14.1 57.4 58 6.1 42.9 0
05:58 1019 30.09 848 25.04 14.1 57.4 58 5.9 42.7 0
05:59 1019 30.09 848 25.04 14.2 57.6 57 5.8 42.4 0
06:00 1019 30.09 848 25.04 14.4 57.9 56 5.8 42.4 0
06:01 1019 30.09 848 25.04 14.5 58.2 56 6.1 42.9 0
06:02 1019 30.09 848 25.04 14.5 58 57 6.1 42.9 0
06:03 1019 30.09 848 25.04 14.4 57.9 57 6 42.7 0
06:04 1019 30.09 848 25.04 14.4 58 56 5.9 42.6 0
06:05 1019 30.09 848 25.04 14.6 58.2 55 5.8 42.4 0
06:06 1019 30.09 848 25.04 14.7 58.5 54 5.6 42 0
06:07 1019 30.09 848 25.04 14.9 58.9 52 5.3 41.5 0
06:08 1019 30.09 848 25.04 15.2 59.4 51 5.3 41.5 0
06:09 1019 30.09 848 25.04 15.5 59.9 49 5 41 0
06:10 1019 30.09 848 25.04 15.9 60.7 49 5.2 41.3 0
06:11 1019 30.09 848 25.04 16.2 61.2 48 5.3 41.5 0
06:12 1019 30.09 848 25.04 16.4 61.5 48 5.5 42 0
06:13 1019 30.09 848 25.04 16.4 61.6 49 5.8 42.5 0
06:14 1019 30.09 848 25.04 16.2 61.1 51 6.2 43.2 0
06:15 1019 30.09 848 25.04 15.8 60.4 52 6.1 43 0
06:16 1019 30.09 848 25.04 15.4 59.8 54 6.3 43.4 0
06:17 1019 30.09 848 25.04 15.1 59.1 55 6.2 43.1 0
06:18 1019 30.09 848 25.04 14.8 58.6 56 6.2 43.1 0
06:19 1019 30.09 848 25.04 14.6 58.3 56 6.1 43 0
06:20 1019 30.09 848 25.04 14.5 58.1 57 6.1 43 0
06:21 1019 30.09 848 25.04 14.4 58 57 6.2 43.1 0
06:22 1019 30.09 848 25.04 14.3 57.7 56 5.8 42.4 0
06:23 1019 30.09 848 25.04 14.3 57.8 57 5.9 42.7 0
06:24 1019 30.09 848 25.04 14.3 57.7 58 6.3 43.3 0
06:25 1019 30.09 848 25.04 14 57.3 60 6.5 43.7 0
06:26 1019 30.09 848 25.04 13.8 56.8 61 6.5 43.7 0
06:27 1019 30.09 848 25.04 13.6 56.4 62 6.5 43.7 0
06:28 1019 30.09 848 25.04 13.4 56.2 62 6.4 43.5 0
06:29 1019 30.09 848 25.04 13.3 56 63 6.4 43.5 0
06:30 1019 30.09 848 25.04 13.3 55.9 64 6.7 44 0
06:31 1019 30.09 848 25.04 13.1 55.5 64 6.5 43.8 0
06:32 1019 30.09 848 25.04 13 55.4 64 6.4 43.6 0
06:33 1019 30.09 848 25.04 13 55.5 64 6.5 43.7 0
06:34 1019 30.09 848 25.04 13 55.4 65 6.6 44 0
06:35 1019 30.09 848 25.04 13 55.4 65 6.7 44 0
06:36 1019 30.09 848 25.04 12.9 55.3 65 6.5 43.7 0
06:37 1019 30.09 848 25.04 13 55.3 64 6.4 43.6 0
06:38 1019 30.09 848 25.04 13 55.4 64 6.5 43.7 0
06:39 1019 30.09 848 25.04 13.1 55.6 64 6.5 43.7 0
06:40 1019 30.09 848 25.04 13.2 55.8 64 6.7 44 0
06:41 1019 30.09 848 25.04 13.3 55.9 64 6.7 44 0
06:42 1019 30.09 848 25.04 13.4 56.1 63 6.5 43.7 0
06:43 1019 30.09 848 25.04 13.6 56.5 62 6.6 43.8 0
06:44 1019 30.09 848 25.04 13.8 56.8 63 6.8 44.3 0
06:45 1019 30.09 848 25.04 13.9 56.9 62 6.7 44 0
06:46 1019 30.09 848 25.04 14 57.2 61 6.7 44.1 0
06:47 1019 30.09 848 25.04 14.1 57.3 61 6.8 44.2 0
06:48 1019 30.09 848 25.04 14.1 57.3 61 6.8 44.3 0
06:49 1019 30.09 848 25.04 14.1 57.5 61 6.8 44.3 0
06:50 1019 30.09 848 25.04 14.2 57.5 61 6.8 44.3 0
06:51 1019 30.09 848 25.04 14.3 57.7 60 6.8 44.2 0
06:52 1019 30.09 848 25.04 14.4 57.8 60 6.7 44.1 0
06:53 1019 30.09 848 25.04 14.5 58 60 7 44.5 0
06:54 1019 30.09 848 25.04 14.5 58 60 6.9 44.4 0
06:55 1019 30.09 848 25.04 14.5 58.1 60 6.8 44.3 0
06:56 1019 30.09 848 25.04 14.6 58.2 60 6.9 44.5 0
06:57 1019 30.09 848 25.04 14.6 58.3 60 7.1 44.8 0
06:58 1019 30.09 848 25.04 14.6 58.3 60 7.1 44.7 0
06:59 1019 30.09 848 25.04 14.6 58.3 59 6.9 44.3 0
07:00 1019 30.09 848 25.04 14.7 58.4 59 6.7 44.1 0
07:01 1019 30.09 848 25.04 14.8 58.7 58 6.8 44.2 0
07:02 1019 30.09 848 25.04 14.9 58.9 57 6.7 44 0
07:03 1019 30.09 848 25.04 15 59.1 58 6.9 44.4 0
07:04 1019 30.09 848 25.04 15.1 59.1 58 7 44.5 0
07:05 1019 30.09 848 25.04 15.1 59.1 58 6.8 44.3 0
07:06 1019 30.09 848 25.04 15.2 59.3 56 6.5 43.7 0
07:07 1019 30.09 848 25.04 15.5 59.9 54 6.2 43.2 0
07:08 1019 30.09 848 25.04 16 60.8 50 5.8 42.4 0
07:09 1019 30.09 848 25.04 16.5 61.6 48 5.6 42.1 0
07:10 1019 30.09 848 25.04 16.8 62.3 48 5.8 42.5 0
07:11 1019 30.09 848 25.04 17.1 62.8 47 6 42.7 0
07:12 1019 30.09 848 25.04 17.4 63.3 46 5.8 42.4 0
07:13 1019 30.09 848 25.04 17.6 63.6 46 6 42.7 0
07:14 1019 30.09 848 25.04 17.7 63.9 47 6.3 43.3 0
07:15 1019 30.09 848 25.04 17.9 64.3 46 6.3 43.4 0
07:16 1019 30.09 848 25.04 18 64.4 46 6.3 43.3 0
07:17 1019 30.09 848 25.04 18.1 64.6 45 6 42.8 0
07:18 1019 30.09 848 25.04 18.3 64.9 44 5.9 42.6 0
07:19 1019 30.09 848 25.04 18.5 65.2 45 6.5 43.7 0
07:20 1019 30.09 848 25.04 18.5 65.3 45 6.5 43.8 0
07:21 1019 30.09 848 25.04 18.5 65.3 46 6.7 44 0
07:22 1019 30.09 848 25.04 18.5 65.3 45 6.6 43.9 0
07:23 1019 30.09 848 25.04 18.5 65.4 45 6.5 43.7 0
07:24 1019 30.09 848 25.04 18.6 65.5 46 6.8 44.2 0
07:25 1019 30.09 848 25.04 18.7 65.6 44 6.3 43.4 0
07:26 1019 30.09 848 25.04 18.7 65.7 45 6.5 43.8 0
07:27 1019 30.09 848 25.04 18.7 65.7 46 6.9 44.4 0
07:28 1019 30.09 848 25.04 18.8 65.8 45 6.9 44.4 0
07:29 1019 30.09 848 25.04 18.8 65.9 46 7 44.6 0
07:30 1019 30.09 848 25.04 18.9 66 43 6.1 43 0
07:31 1019 30.09 848 25.04 19 66.2 46 7.2 44.9 0
07:32 1019 30.09 848 25.04 19 66.2 42 6.1 42.9 0
07:33 1019 30.09 848 25.04 19.1 66.4 44 6.6 43.8 0
07:34 1019 30.09 848 25.04 19.2 66.6 45 7 44.6 0
07:35 1019 30.09 848 25.04 19.3 66.7 44 6.7 44.1 0
07:36 1019 30.09 849 25.07 19.4 66.8 44 7.1 44.7 0
07:37 1019 30.09 848 25.04 19.4 67 42 6.4 43.6 0
07:38 1019 30.09 849 25.07 19.5 67.1 44 7.2 44.9 0
07:39 1019 30.09 849 25.07 19.5 67.2 49 8.7 47.6 0
07:40 1019 30.09 849 25.07 19.5 67.1 51 9.3 48.7 0
07:41 1019 30.09 849 25.07 19.4 66.9 49 8.6 47.4 0
07:42 1019 30.09 849 25.07 19.4 66.9 49 8.5 47.3 0
07:43 1019 30.09 849 25.07 19.4 66.9 44 7.1 44.7 0
07:44 1019 30.09 849 25.07 19.6 67.2 44 7.2 44.9 0
07:45 1019 30.09 849 25.07 19.7 67.4 44 7.2 44.9 0
07:46 1019 30.09 849 25.07 19.9 67.8 43 7 44.5 0
07:47 1019 30.09 849 25.07 20 68 42 6.8 44.2 0
07:48 1019 30.09 849 25.07 20.1 68.2 43 7.2 44.9 0
07:49 1019 30.09 849 25.07 20.2 68.3 42 7.1 44.8 0
07:50 1019 30.09 849 25.07 20.2 68.4 44 7.9 46.2 0
07:51 1019 30.09 849 25.07 20.3 68.6 43 7.3 45.2 0
07:52 1019 30.09 849 25.07 20.4 68.7 43 7.6 45.6 0
07:53 1019 30.09 849 25.07 20.4 68.7 42 7.2 44.9 0
07:54 1019 30.09 848 25.04 20.5 68.9 45 8.2 46.8 0
07:55 1019 30.09 848 25.04 20.6 69 42 7.3 45.2 0
07:56 1019 30.09 848 25.04 20.6 69.1 44 8.2 46.7 0
07:57 1019 30.09 848 25.04 20.7 69.3 44 8.1 46.6 0
07:58 1019 30.09 848 25.04 20.7 69.3 46 8.7 47.6 0
07:59 1019 30.09 848 25.04 20.8 69.4 42 7.4 45.4 0
08:00 1019 30.09 848 25.04 20.8 69.4 46 8.7 47.7 0
08:01 1019 30.09 848 25.04 20.8 69.5 45 8.6 47.5 0
08:02 1019 30.09 848 25.04 20.9 69.5 44 8.3 46.9 0
08:03 1019 30.09 848 25.04 20.8 69.5 45 8.5 47.3 0
08:04 1019 30.09 848 25.04 20.9 69.7 43 8.1 46.5 0
08:05 1019 30.09 848 25.04 21 69.8 44 8.4 47.1 0
08:06 1019 30.09 848 25.04 21.1 69.9 42 7.8 46 0
08:07 1019 30.09 848 25.04 21.2 70.1 41 7.8 46 0
08:08 1019 30.09 848 25.04 21.4 70.4 42 8.1 46.6 0
08:09 1019 30.09 848 25.04 21.5 70.6 43 8.5 47.3 0
08:10 1019 30.09 849 25.07 21.6 70.8 42 8.4 47.1 0
08:11 1019 30.09 848 25.04 21.7 71 44 9.1 48.4 0
08:12 1019 30.09 848 25.04 21.8 71.2 40 7.7 45.9 0
08:13 1019 30.09 848 25.04 21.9 71.4 42 8.5 47.2 0
08:14 1019 30.09 848 25.04 22 71.6 40 8.1 46.7 0
08:15 1019 30.09 848 25.04 22.1 71.8 40 8.2 46.8 0
08:16 1019 30.09 848 25.04 22.2 72 38 7.5 45.6 0
08:17 1019 30.09 848 25.04 22.3 72.1 39 7.7 45.9 0
08:18 1019 30.09 848 25.04 22.3 72.1 40 8.1 46.5 0
08:19 1019 30.09 848 25.04 22.4 72.3 41 8.8 47.8 0
08:20 1019 30.09 848 25.04 22.4 72.3 44 9.6 49.2 0
08:21 1019 30.09 848 25.04 22.4 72.3 39 8 46.5 0
08:22 1019 30.09 848 25.04 22.5 72.4 41 8.9 48 0
08:23 1019 30.09 848 25.04 22.5 72.5 42 9 48.3 0
08:24 1019 30.09 848 25.04 22.6 72.6 39 8.2 46.7 0
08:25 1019 30.09 848 25.04 22.6 72.7 38 7.7 45.8 0
08:26 1019 30.09 848 25.04 22.7 72.8 42 9.3 48.7 0
08:27 1019 30.09 848 25.04 22.8 73 40 8.5 47.4 0
08:28 1019 30.09 848 25.04 22.9 73.2 38 8 46.4 0
08:29 1019 30.09 848 25.04 23 73.3 41 9.3 48.7 0
08:30 1019 30.09 848 25.04 23.1 73.5 36 7.5 45.5 0
08:31 1019 30.09 848 25.04 23.1 73.6 38 8.2 46.7 0
08:32 1019 30.09 848 25.04 23.2 73.7 33 6.3 43.3 0
08:33 1019 30.09 848 25.04 23.2 73.8 37 8 46.4 0
08:34 1019 30.09 848 25.04 23.3 73.9 35 7.3 45.1 0
08:35 1019 30.09 848 25.04 23.4 74 37 8.1 46.5 0
08:36 1019 30.09 848 25.04 23.4 74.1 35 7.4 45.4 0
08:37 1019 30.09 848 25.04 23.4 74.2 38 8.4 47.1 0
08:38 1019 30.09 848 25.04 23.5 74.3 35 7.3 45.1 0
08:39 1019 30.09 848 25.04 23.6 74.5 39 8.9 48.1 0
08:40 1019 30.09 848 25.04 23.7 74.7 36 8.2 46.7 0
08:41 1019 30.09 848 25.04 23.8 74.8 40 9.4 48.9 0
08:42 1019 30.09 848 25.04 23.8 74.9 39 9.4 48.9 0
08:43 1019 30.09 848 25.04 23.9 75 35 7.6 45.8 0
08:44 1019 30.09 848 25.04 23.9 75.1 37 8.4 47.2 0
08:45 1019 30.09 848 25.04 23.9 75.1 36 8.4 47.1 0
08:46 1019 30.09 848 25.04 24 75.1 38 9 48.3 0
08:47 1019 30.09 848 25.04 24 75.2 40 9.6 49.3 0
08:48 1019 30.09 848 25.04 24.1 75.4 36 8.3 46.9 0
08:49 1019 30.09 848 25.04 24.1 75.4 34 7.7 45.9 0
08:50 1019 30.09 848 25.04 24.1 75.4 38 9.2 48.6 0
08:51 1019 30.09 848 25.04 24.2 75.5 41 10.5 50.9 0
08:52 1019 30.09 848 25.04 24.3 75.8 40 10 50 0
08:53 1019 30.09 848 25.04 24.4 76 40 10.2 50.3 0
08:54 1019 30.09 848 25.04 24.5 76.1 39 9.9 49.8 0
08:55 1019 30.09 848 25.04 24.6 76.3 36 8.6 47.5 0
08:56 1019 30.09 848 25.04 24.6 76.4 40 10.2 50.4 0
08:57 1019 30.09 848 25.04 24.7 76.5 35 8.6 47.5 0
08:58 1019 30.09 848 25.04 24.7 76.5 32 7.2 44.9 0
08:59 1019 30.09 848 25.04 24.7 76.4 39 10.1 50.2 0
09:00 1019 30.09 848 25.04 24.6 76.3 35 8.4 47.2 0
09:01 1019 30.09 848 25.04 24.7 76.4 37 9.2 48.5 0
09:02 1019 30.09 848 25.04 24.8 76.6 32 7.1 44.7 0
09:03 1019 30.09 848 25.04 24.8 76.7 39 10 50 0
09:04 1019 30.09 848 25.04 24.9 76.8 37 9.5 49.1 0
09:05 1019 30.09 848 25.04 25 76.9 32 7.3 45.1 0
09:06 1019 30.09 848 25.04 25 77 32 7.6 45.7 0
09:07 1019 30.09 848 25.04 25.1 77.2 33 7.7 45.9 0
09:08 1019 30.09 848 25.04 25.2 77.4 34 8.4 47.1 0
09:09 1019 30.09 848 25.04 25.2 77.3 34 8.6 47.4 0
09:10 1019 30.09 848 25.04 25.2 77.4 33 8.3 46.9 0
09:11 1019 30.09 848 25.04 25.2 77.4 39 10.6 51 0
09:12 1019 30.09 848 25.04 25.3 77.5 32 7.5 45.6 0
09:13 1019 30.09 848 25.04 25.2 77.4 37 9.6 49.3 0
09:14 1019 30.09 848 25.04 25.3 77.5 31 7 44.7 0
09:15 1019 30.09 848 25.04 25.3 77.6 33 8.1 46.6 0
09:16 1019 30.09 848 25.04 25.3 77.6 31 7.1 44.9 0
09:17 1019 30.09 848 25.04 25.4 77.6 34 8.5 47.2 0
09:18 1019 30.09 848 25.04 25.4 77.8 33 8.4 47.2 0
09:19 1019 30.09 848 25.04 25.6 78 32 7.7 45.9 0
09:20 1019 30.09 848 25.04 25.7 78.3 35 9.4 49 0
09:21 1019 30.09 848 25.04 25.8 78.4 31 7.7 45.9 0
09:22 1019 30.09 848 25.04 25.9 78.5 33 8.6 47.5 0
09:23 1019 30.09 848 25.04 25.9 78.5 31 7.6 45.8 0
09:24 1019 30.09 848 25.04 25.9 78.5 32 8.3 46.9 0
09:25 1019 30.09 848 25.04 25.9 78.5 33 8.6 47.6 0
09:26 1019 30.09 848 25.04 25.9 78.5 33 8.5 47.3 0
09:27 1019 30.09 848 25.04 25.8 78.5 32 8.2 46.7 0
09:28 1019 30.09 848 25.04 25.9 78.6 34 9.2 48.5 0
09:29 1019 30.09 848 25.04 26 78.8 33 8.8 47.9 0
09:30 1019 30.09 848 25.04 26.1 79.1 30 7.4 45.3 0
09:31 1019 30.09 848 25.04 26.3 79.3 30 7.7 45.8 0
09:32 1019 30.09 848 25.04 26.2 79.2 31 8.2 46.8 0
09:33 1019 30.09 848 25.04 26.2 79.2 33 8.8 47.8 0
09:34 1019 30.09 848 25.04 26.3 79.3 29 6.9 44.4 0
09:35 1019 30.09 848 25.04 26.3 79.3 33 8.9 48.1 0
09:36 1019 30.09 848 25.04 26.3 79.4 32 8.4 47.2 0
09:37 1019 30.09 848 25.04 26.4 79.5 34 9.6 49.4 0
09:38 1019 30.09 848 25.04 26.4 79.5 34 9.6 49.4 0
09:39 1019 30.09 848 25.04 26.5 79.6 31 8.2 46.8 0
09:40 1019 30.09 848 25.04 26.5 79.6 33 9.1 48.5 0
09:41 1019 30.09 848 25.04 26.5 79.7 32 8.7 47.6 0
09:42 1019 30.09 848 25.04 26.6 79.8 32 8.9 48 0
09:43 1019 30.09 848 25.04 26.6 79.9 38 11.4 52.5 0
09:44 1019 30.09 848 25.04 26.7 80 32 9.1 48.3 0
09:45 1019 30.09 848 25.04 26.7 80.1 35 10.1 50.2 0
09:46 1019 30.09 848 25.04 26.8 80.3 39 11.9 53.5 0
09:47 1019 30.09 848 25.04 27 80.6 32 9 48.2 0
09:48 1019 30.09 848 25.04 27.2 81 30 8.4 47.2 0
09:49 1019 30.09 848 25.04 27.4 81.3 36 11.4 52.5 0
09:50 1019 30.09 848 25.04 27.3 81.1 32 9.4 49 0
09:51 1019 30.09 848 25.04 27 80.7 33 9.8 49.7 0
09:52 1019 30.09 848 25.04 26.8 80.2 33 9.6 49.3 0
09:53 1019 30.09 848 25.04 26.6 79.8 32 8.9 48 0
09:54 1019 30.09 848 25.04 26.4 79.6 33 9.3 48.8 0
09:55 1019 30.09 848 25.04 26.4 79.4 32 8.5 47.3 0
09:56 1019 30.09 848 25.04 26.4 79.5 36 10.6 51.1 0
09:57 1019 30.09 848 25.04 26.5 79.6 38 11.1 52 0
09:58 1019 30.09 848 25.04 26.5 79.8 42 12.7 54.8 0
09:59 1019 30.09 848 25.04 26.7 80 37 11 51.7 0
10:00 1019 30.09 848 25.04 26.7 80 34 9.8 49.7 0
10:01 1019 30.09 848 25.04 26.6 79.9 35 9.9 49.9 0
10:02 1019 30.09 848 25.04 26.6 79.8 33 9.4 48.9 0
10:03 1019 30.09 848 25.04 26.6 79.8 32 8.6 47.4 0
10:04 1019 30.09 848 25.04 26.6 79.8 33 9.4 48.9 0
10:05 1019 30.09 848 25.04 26.6 79.8 36 10.5 50.8 0
10:06 1019 30.09 848 25.04 26.6 79.8 35 10.1 50.2 0
10:07 1019 30.09 848 25.04 26.6 79.9 32 8.6 47.5 0
10:08 1019 30.09 848 25.04 26.7 80 31 8.6 47.4 0
10:09 1019 30.09 848 25.04 26.8 80.2 33 9.6 49.3 0
10:10 1019 30.09 848 25.04 26.8 80.2 35 10.4 50.7 0
10:11 1019 30.09 848 25.04 26.8 80.3 40 12.4 54.4 0
10:12 1019 30.09 848 25.04 26.9 80.3 33 9.5 49.1 0
10:13 1019 30.09 848 25.04 26.8 80.3 39 12.1 53.8 0
10:14 1019 30.09 848 25.04 26.9 80.4 43 13.4 56.1 0
10:15 1019 30.09 848 25.04 27 80.6 32 9.3 48.8 0
10:16 1019 30.09 848 25.04 27 80.6 40 12.5 54.6 0
10:17 1019 30.09 848 25.04 27.1 80.7 33 9.7 49.4 0
10:18 1019 30.09 848 25.04 27.1 80.8 33 9.8 49.6 0
10:19 1019 30.09 848 25.04 27.1 80.8 32 9.5 49.1 0
10:20 1019 30.09 848 25.04 27.1 80.8 30 8.3 47 0
10:21 1019 30.09 848 25.04 27 80.7 33 9.6 49.3 0
10:22 1019 30.09 848 25.04 27 80.6 36 10.9 51.6 0
10:23 1019 30.09 848 25.04 27 80.7 34 10.1 50.3 0
10:24 1019 30.09 848 25.04 27.1 80.8 33 9.7 49.5 0
10:25 1018 30.06 848 25.04 27.2 81 31 8.7 47.6 0
10:26 1018 30.06 848 25.04 27.3 81.1 36 11.1 51.9 0
10:27 1018 30.06 848 25.04 27.4 81.3 29 8 46.3 0
10:28 1018 30.06 848 25.04 27.4 81.4 34 10.4 50.7 0
10:29 1018 30.06 848 25.04 27.5 81.6 39 12.5 54.5 0
10:30 1018 30.06 848 25.04 27.6 81.7 34 10.6 51 0
10:31 1018 30.06 848 25.04 27.7 81.8 34 10.5 50.9 0
10:32 1018 30.06 848 25.04 27.7 81.8 29 8.5 47.2 0
10:33 1018 30.06 848 25.04 27.7 81.8 28 8 46.4 0
10:34 1018 30.06 848 25.04 27.7 81.8 31 9.5 49 0
10:35 1018 30.06 848 25.04 27.8 82 29 8.6 47.5 0
10:36 1018 30.06 848 25.04 27.8 82 39 12.7 54.8 0
10:37 1018 30.06 848 25.04 27.8 82.1 36 11.6 52.9 0
10:38 1018 30.06 848 25.04 27.9 82.3 31 9.6 49.2 0
10:39 1018 30.06 848 25.04 28 82.5 31 9.5 49.1 0
10:40 1018 30.06 848 25.04 28.1 82.6 31 9.6 49.2 0
10:41 1019 30.09 848 25.04 28.2 82.7 39 13.2 55.8 0
10:42 1019 30.09 848 25.04 28.3 83 26 7.4 45.3 0
10:43 1019 30.09 848 25.04 28.3 83 31 9.9 49.9 0
10:44 1019 30.09 848 25.04 28.3 82.9 33 10.7 51.3 0
10:45 1019 30.09 848 25.04 28.3 83 34 11.5 52.6 0
10:46 1019 30.09 848 25.04 28.3 82.9 32 10.4 50.7 0
10:47 1019 30.09 848 25.04 28.2 82.7 32 10.1 50.2 0
10:48 1019 30.09 848 25.04 28.1 82.5 36 11.9 53.4 0
10:49 1019 30.09 848 25.04 28 82.4 32 10 50 0
10:50 1019 30.09 848 25.04 28 82.3 38 12.5 54.4 0
10:51 1019 30.09 848 25.04 27.9 82.1 30 9 48.3 0
10:52 1019 30.09 848 25.04 27.9 82.1 38 12.6 54.6 0
10:53 1019 30.09 848 25.04 27.9 82.2 33 10.6 51 0
10:54 1019 30.09 848 25.04 27.8 82 35 11.2 52.1 0
10:55 1019 30.09 848 25.04 27.8 82 37 11.8 53.3 0
10:56 1019 30.09 848 25.04 27.8 82 39 12.7 54.8 0
10:57 1019 30.09 848 25.04 27.8 82.1 36 11.6 52.9 0
10:58 1019 30.09 848 25.04 27.9 82.2 35 11.5 52.6 0
10:59 1019 30.09 848 25.04 28 82.4 33 10.5 50.8 0
11:00 1019 30.09 848 25.04 28.1 82.5 37 12.4 54.4 0
11:01 1019 30.09 848 25.04 28.2 82.7 38 12.7 54.9 0
11:02 1019 30.09 848 25.04 28.2 82.7 34 11.1 51.9 0
11:03 1019 30.09 848 25.04 28.1 82.5 32 10.1 50.1 0
11:04 1019 30.09 848 25.04 28 82.4 39 13.1 55.7 0
11:05 1019 30.09 848 25.04 28 82.4 38 12.8 55 0
11:06 1019 30.09 848 25.04 28.1 82.5 31 9.7 49.4 0
11:07 1019 30.09 848 25.04 28.1 82.6 37 12.2 54 0
11:08 1019 30.09 848 25.04 28.1 82.7 29 8.5 47.3 0
11:09 1019 30.09 848 25.04 28.2 82.7 32 10.3 50.6 0
11:10 1019 30.09 848 25.04 28.3 83 31 10 50 0
11:11 1019 30.09 848 25.04 28.4 83.1 31 9.7 49.5 0
11:12 1019 30.09 848 25.04 28.5 83.3 28 8.7 47.6 0
11:13 1019 30.09 848 25.04 28.6 83.4 29 9.3 48.8 0
11:14 1018 30.06 848 25.04 28.6 83.4 29 9 48.1 0
11:15 1019 30.09 848 25.04 28.7 83.6 28 8.7 47.7 0
11:16 1019 30.09 848 25.04 28.7 83.6 29 9 48.3 0
11:17 1019 30.09 848 25.04 28.7 83.6 29 9.1 48.4 0
11:18 1019 30.09 848 25.04 28.7 83.6 36 12.4 54.2 0
11:19 1019 30.09 848 25.04 28.8 83.8 31 10.3 50.5 0
11:20 1019 30.09 848 25.04 28.8 83.9 32 11 51.8 0
11:21 1018 30.06 848 25.04 28.9 84.1 32 10.8 51.5 0
11:22 1018 30.06 848 25.04 29 84.3 32 11.1 51.9 0
11:23 1018 30.06 848 25.04 29.2 84.6 26 7.9 46.3 0
11:24 1018 30.06 848 25.04 29.4 84.9 28 9.5 49.1 0
11:25 1018 30.06 848 25.04 29.5 85.1 29 10 50 0
11:26 1018 30.06 848 25.04 29.6 85.3 32 11.3 52.3 0
11:27 1018 30.06 848 25.04 29.7 85.4 30 10.5 50.9 0
11:28 1018 30.06 848 25.04 29.8 85.6 24 7.4 45.4 0
11:29 1018 30.06 848 25.04 29.7 85.5 24 7.4 45.4 0
11:30 1018 30.06 848 25.04 29.7 85.5 25 7.9 46.2 0
11:31 1018 30.06 848 25.04 29.7 85.5 25 7.8 46.1 0
11:32 1018 30.06 848 25.04 29.7 85.4 24 7.2 44.9 0
11:33 1018 30.06 848 25.04 29.7 85.5 24 7.6 45.7 0
11:34 1018 30.06 848 25.04 29.8 85.6 35 12.9 55.3 0
11:35 1018 30.06 848 25.04 29.9 85.9 29 10.4 50.7 0
11:36 1018 30.06 848 25.04 30 86 25 8 46.4 0
11:37 1018 30.06 848 25.04 30 86 25 8.2 46.8 0
11:38 1018 30.06 848 25.04 30.1 86.2 26 8.9 48 0
11:39 1018 30.06 847 25.01 30.2 86.4 28 9.8 49.6 0
11:40 1018 30.06 847 25.01 30.2 86.4 30 11 51.9 0
11:41 1018 30.06 847 25.01 30.3 86.5 31 11.6 53 0
11:42 1018 30.06 847 25.01 30.2 86.4 29 10.3 50.6 0
11:43 1018 30.06 847 25.01 30.2 86.4 24 7.7 45.9 0
11:44 1018 30.06 847 25.01 30.2 86.4 27 9.4 49 0
11:45 1018 30.06 847 25.01 30.2 86.3 26 8.9 48 0
11:46 1018 30.06 847 25.01 30.2 86.4 25 8.2 46.8 0
11:47 1018 30.06 847 25.01 30.2 86.3 27 9.4 49 0
11:48 1018 30.06 847 25.01 30.2 86.4 26 8.8 47.9 0
11:49 1018 30.06 847 25.01 30.2 86.4 24 8.1 46.5 0
11:50 1018 30.06 847 25.01 30.2 86.4 24 7.5 45.4 0
11:51 1018 30.06 847 25.01 30.2 86.4 24 8 46.3 0
11:52 1018 30.06 847 25.01 30.3 86.5 24 7.7 45.8 0
11:53 1018 30.06 847 25.01 30.3 86.5 26 8.8 47.8 0
11:54 1018 30.06 847 25.01 30.3 86.5 23 7 44.6 0
11:55 1018 30.06 847 25.01 30.3 86.5 28 10.3 50.5 0
11:56 1018 30.06 847 25.01 30.4 86.7 30 11.2 52.2 0
11:57 1018 30.06 847 25.01 30.5 87 25 8.9 48 0
11:58 1018 30.06 847 25.01 30.6 87.1 29 10.9 51.6 0
11:59 1018 30.06 847 25.01 30.7 87.3 24 8.4 47 0
12:00 1018 30.06 847 25.01 30.8 87.5 25 8.8 47.9 0
12:01 1018 30.06 847 25.01 30.9 87.6 24 8.5 47.3 0
12:02 1018 30.06 847 25.01 30.9 87.6 26 9.7 49.4 0
12:03 1018 30.06 847 25.01 30.9 87.7 28 10.5 51 0
12:04 1018 30.06 847 25.01 31 87.7 28 10.7 51.3 0
12:05 1018 30.06 847 25.01 31 87.8 23 7.5 45.5 0
12:06 1018 30.06 847 25.01 31 87.8 26 9.6 49.3 0
12:07 1018 30.06 847 25.01 31 87.7 23 8 46.5 0
12:08 1018 30.06 847 25.01 30.9 87.6 26 9.4 49 0
12:09 1018 30.06 847 25.01 30.9 87.6 27 9.9 49.8 0
12:10 1018 30.06 847 25.01 30.9 87.6 27 10.1 50.2 0
12:11 1018 30.06 847 25.01 30.9 87.6 25 9 48.3 0
12:12 1018 30.06 847 25.01 31 87.7 24 8.4 47.2 0
12:13 1018 30.06 847 25.01 31 87.7 27 9.9 49.9 0
12:14 1018 30.06 847 25.01 31 87.8 23 7.8 46.1 0
12:15 1018 30.06 847 25.01 31.1 88 29 11.2 52.1 0
12:16 1018 30.06 847 25.01 31.1 88 23 7.8 46 0
12:17 1018 30.06 847 25.01 31.2 88.1 25 9.2 48.5 0
12:18 1018 30.06 847 25.01 31.1 88 25 8.9 47.9 0
12:19 1018 30.06 847 25.01 31.1 88 25 9.2 48.5 0
12:20 1018 30.06 847 25.01 31.2 88.1 24 8.7 47.7 0
12:21 1018 30.06 847 25.01 31.1 87.9 24 8.3 46.9 0
12:22 1018 30.06 847 25.01 31.1 87.9 25 9.2 48.6 0
12:23 1018 30.06 847 25.01 31.1 88 27 10.2 50.4 0
12:24 1018 30.06 847 25.01 31.3 88.4 27 10.4 50.8 0
12:25 1018 30.06 847 25.01 31.5 88.8 29 11.6 52.8 0
12:26 1018 30.06 847 25.01 31.6 88.8 27 10.9 51.6 0
12:27 1018 30.06 847 25.01 31.5 88.6 27 10.8 51.5 0
12:28 1018 30.06 847 25.01 31.4 88.5 28 11.3 52.4 0
12:29 1018 30.06 847 25.01 31.2 88.2 28 10.9 51.7 0
12:30 1018 30.06 847 25.01 31.1 87.9 27 10 50 0
12:31 1018 30.06 847 25.01 31.1 87.9 27 10.4 50.7 0
12:32 1018 30.06 847 25.01 30.8 87.5 28 10.6 51.2 0
12:33 1018 30.06 847 25.01 30.6 87.1 31 11.8 53.3 0
12:34 1018 30.06 847 25.01 30.1 86.2 30 11.1 51.9 0
12:35 1018 30.06 847 25.01 29.5 85.1 32 11.3 52.3 0
12:36 1018 30.06 847 25.01 29 84.2 30 9.8 49.7 0
12:37 1018 30.06 847 25.01 28.7 83.7 30 9.7 49.5 0
12:38 1018 30.06 847 25.01 28.6 83.4 30 9.8 49.6 0
12:39 1018 30.06 847 25.01 28.4 83.2 31 10.2 50.3 0
12:40 1018 30.06 847 25.01 28.3 82.9 32 10.5 50.8 0
12:41 1018 30.06 847 25.01 28.1 82.6 33 10.7 51.3 0
12:42 1018 30.06 847 25.01 28 82.4 32 9.9 49.9 0
12:43 1018 30.06 847 25.01 27.9 82.2 30 9.2 48.6 0
12:44 1018 30.06 847 25.01 27.8 82.1 30 8.9 48.1 0
12:45 1018 30.06 847 25.01 27.7 81.9 30 9 48.2 0
12:46 1018 30.06 847 25.01 27.6 81.6 31 9.2 48.5 0
12:47 1018 30.06 847 25.01 27.3 81.2 34 10.3 50.5 0
12:48 1018 30.06 847 25.01 27.1 80.7 35 10.4 50.8 0
12:49 1018 30.06 847 25.01 26.9 80.4 33 9.5 49 0
12:50 1018 30.06 847 25.01 26.9 80.5 32 8.9 48 0
12:51 1018 30.06 847 25.01 27 80.6 33 9.5 49.1 0
12:52 1018 30.06 847 25.01 27.1 80.7 32 9 48.2 0
12:53 1018 30.06 847 25.01 27.1 80.8 30 8.2 46.8 0
12:54 1018 30.06 847 25.01 27.1 80.8 30 8.5 47.3 0
12:55 1018 30.06 847 25.01 27.1 80.7 31 8.6 47.5 0
12:56 1018 30.06 847 25.01 27 80.5 33 9.4 48.9 0
12:57 1018 30.06 847 25.01 26.9 80.3 32 9.1 48.3 0
12:58 1018 30.06 847 25.01 26.8 80.3 31 8.4 47 0
12:59 1018 30.06 847 25.01 26.8 80.3 31 8.8 47.8 0
13:00 1018 30.06 847 25.01 26.8 80.3 30 8.3 46.9 0
13:01 1018 30.06 847 25.01 26.8 80.2 31 8.6 47.5 0
13:02 1018 30.06 847 25.01 26.9 80.3 31 8.6 47.5 0
13:03 1018 30.06 848 25.04 26.8 80.2 34 9.9 49.8 0
13:04 1018 30.06 848 25.04 26.6 79.9 32 9 48.2 0
13:05 1018 30.06 848 25.04 26.5 79.7 34 9.7 49.4 0
13:06 1018 30.06 848 25.04 26.4 79.4 36 10.3 50.5 0
13:07 1018 30.06 848 25.04 26.3 79.3 37 10.5 50.9 0
13:08 1018 30.06 848 25.04 26.1 79 36 10.1 50.2 0
13:09 1018 30.06 848 25.04 26 78.8 36 10.2 50.3 0
13:10 1018 30.06 848 25.04 25.9 78.7 37 10.5 50.8 0
13:11 1018 30.06 848 25.04 25.9 78.6 39 11 51.8 0
13:12 1018 30.06 848 25.04 26 78.7 37 10.3 50.5 0
13:13 1018 30.06 848 25.04 26 78.7 38 10.6 51.1 0
13:14 1018 30.06 848 25.04 26 78.7 39 11.2 52.2 0
13:15 1018 30.06 848 25.04 26.1 78.9 39 11.2 52.2 0
13:16 1018 30.06 848 25.04 26.5 79.6 37 10.9 51.7 0
13:17 1018 30.06 848 25.04 27.1 80.9 31 8.6 47.5 0
13:18 1018 30.06 848 25.04 28 82.3 31 9.5 49.1 0
13:19 1018 30.06 848 25.04 28.5 83.4 26 7.3 45.2 0
13:20 1018 30.06 847 25.01 28.9 84.1 26 7.7 45.9 0
13:21 1018 30.06 847 25.01 29.1 84.3 26 7.8 46.1 0
13:22 1018 30.06 847 25.01 29 84.3 26 7.9 46.3 0
13:23 1018 30.06 847 25.01 29 84.2 25 7.5 45.5 0
13:24 1018 30.06 847 25.01 29 84.2 24 6.6 43.9 0
13:25 1018 30.06 847 25.01 29 84.2 24 6.8 44.2 0
13:26 1018 30.06 847 25.01 29.1 84.4 27 8.5 47.3 0
13:27 1018 30.06 847 25.01 29.1 84.4 24 7.1 44.7 0
13:28 1018 30.06 847 25.01 28.9 84.1 22 5.4 41.8 0
13:29 1018 30.06 847 25.01 28.9 84 23 6 42.8 0
13:30 1018 30.06 847 25.01 29 84.1 24 6.4 43.5 0
13:31 1018 30.06 847 25.01 28.9 84 24 6.5 43.6 0
13:32 1018 30.06 847 25.01 28.8 83.8 22 5.3 41.5 0
13:33 1018 30.06 847 25.01 28.8 83.9 24 6.6 43.8 0
13:34 1018 30.06 847 25.01 28.8 83.9 23 6 42.9 0
13:35 1018 30.06 847 25.01 28.8 83.8 24 6.8 44.2 0
13:36 1018 30.06 847 25.01 28.8 83.8 22 5.4 41.8 0
13:37 1018 30.06 847 25.01 28.8 83.8 25 7.4 45.2 0
13:38 1018 30.06 847 25.01 28.8 83.9 27 8.1 46.6 0
13:39 1018 30.06 848 25.04 28.8 83.9 26 7.6 45.8 0
13:40 1018 30.06 848 25.04 28.9 83.9 27 8.4 47 0
13:41 1018 30.06 848 25.04 28.8 83.8 34 11.6 52.8 0
13:42 1018 30.06 848 25.04 28.4 83.2 34 11.3 52.4 0
13:43 1018 30.06 848 25.04 28.1 82.6 33 10.7 51.3 0
13:44 1019 30.09 848 25.04 27.8 82 35 11.2 52.1 0
13:45 1019 30.09 848 25.04 27.5 81.5 38 12.2 54 0
13:46 1019 30.09 848 25.04 27.3 81.2 37 11.5 52.8 0
13:47 1019 30.09 848 25.04 27.3 81.1 37 11.4 52.6 0
13:48 1019 30.09 848 25.04 27.2 81 33 9.9 49.8 0
13:49 1019 30.09 848 25.04 27.1 80.8 35 10.6 51.1 0
13:50 1019 30.09 848 25.04 26.9 80.4 38 11.5 52.6 0
13:51 1019 30.09 848 25.04 26.8 80.2 37 11.1 52.1 0
13:52 1019 30.09 848 25.04 26.7 80.1 35 10.4 50.7 0
13:53 1019 30.09 848 25.04 26.7 80.1 38 11.4 52.6 0
13:54 1019 30.09 848 25.04 26.6 79.8 36 10.6 51.1 0
13:55 1019 30.09 848 25.04 26.5 79.8 31 8.3 47 0
13:56 1019 30.09 848 25.04 26.7 80.1 30 7.8 46 0
13:57 1019 30.09 848 25.04 26.9 80.4 29 7.9 46.2 0
13:58 1019 30.09 848 25.04 26.9 80.4 30 8.1 46.6 0
13:59 1019 30.09 848 25.04 26.7 80.1 32 9.1 48.5 0
14:00 1019 30.09 848 25.04 26.6 79.9 33 9.2 48.5 0
14:01 1019 30.09 848 25.04 26.4 79.6 35 9.8 49.6 0
14:02 1019 30.09 848 25.04 26.2 79.2 36 10.1 50.3 0
14:03 1019 30.09 848 25.04 26.1 78.9 36 10 50.1 0
14:04 1019 30.09 848 25.04 26 78.8 35 9.4 49 0
14:05 1019 30.09 848 25.04 25.8 78.5 35 9.3 48.7 0
14:06 1019 30.09 848 25.04 25.8 78.4 34 8.8 47.8 0
14:07 1019 30.09 848 25.04 25.7 78.2 33 8.5 47.3 0
14:08 1019 30.09 848 25.04 25.6 78 34 8.8 47.9 0
14:09 1019 30.09 848 25.04 25.5 77.9 35 8.9 48.1 0
14:10 1019 30.09 848 25.04 25.4 77.8 35 9 48.2 0
14:11 1019 30.09 848 25.04 25.4 77.8 35 8.9 48 0
14:12 1019 30.09 848 25.04 25.5 77.8 35 9.1 48.4 0
14:13 1019 30.09 848 25.04 25.5 77.9 36 9.4 49 0
14:14 1019 30.09 848 25.04 25.5 77.8 34 8.8 47.8 0
14:15 1019 30.09 848 25.04 25.5 77.9 35 9.2 48.5 0
14:16 1019 30.09 848 25.04 25.5 77.9 36 9.7 49.5 0
14:17 1019 30.09 848 25.04 25.4 77.8 33 8.3 47 0
14:18 1019 30.09 848 25.04 25.5 77.9 36 9.6 49.3 0
14:19 1019 30.09 848 25.04 25.5 77.9 34 8.7 47.6 0
14:20 1019 30.09 848 25.04 25.6 78.1 35 9.3 48.7 0
14:21 1019 30.09 848 25.04 25.6 78.1 35 9.4 49 0
14:22 1019 30.09 848 25.04 25.6 78.1 33 8.6 47.4 0
14:23 1019 30.09 848 25.04 25.8 78.5 35 9.3 48.8 0
14:24 1019 30.09 848 25.04 26 78.8 34 9 48.2 0
14:25 1019 30.09 848 25.04 26.1 79.1 30 7.4 45.4 0
14:26 1019 30.09 848 25.04 26.3 79.4 30 7.9 46.2 0
14:27 1019 30.09 848 25.04 26.5 79.7 31 8.4 47.2 0
14:28 1019 30.09 848 25.04 26.7 80 30 7.9 46.3 0
14:29 1019 30.09 848 25.04 27 80.6 30 8.2 46.7 0
14:30 1019 30.09 848 25.04 27.3 81.1 28 7.6 45.8 0
14:31 1019 30.09 848 25.04 27.7 81.8 26 6.9 44.4 0
14:32 1019 30.09 848 25.04 28.1 82.6 29 8.6 47.6 0
14:33 1019 30.09 848 25.04 28.5 83.3 27 7.9 46.3 0
14:34 1019 30.09 848 25.04 29.1 84.4 28 8.8 47.9 0
14:35 1019 30.09 848 25.04 29.6 85.3 28 9.4 49 0
14:36 1019 30.09 848 25.04 30 86 24 7.8 46 0
14:37 1019 30.09 848 25.04 30.3 86.5 24 7.9 46.2 0
14:38 1019 30.09 848 25.04 30.6 87 21 6.2 43.2 0
14:39 1019 30.09 848 25.04 30.7 87.2 21 6.3 43.4 0
14:40 1019 30.09 848 25.04 30.9 87.6 20 5.7 42.2 0
14:41 1019 30.09 848 25.04 31 87.7 24 8.7 47.6 0
14:42 1019 30.09 848 25.04 31 87.9 22 7.2 44.9 0
14:43 1019 30.09 848 25.04 31 87.9 25 8.9 48.1 0
14:44 1019 30.09 848 25.04 31 87.9 21 6.5 43.6 0
14:45 1019 30.09 848 25.04 31.1 88 20 6 42.8 0
14:46 1019 30.09 848 25.04 31.2 88.1 19 5.5 41.9 0
14:47 1019 30.09 848 25.04 31.3 88.4 21 6.7 44.1 0
14:48 1019 30.09 848 25.04 31.4 88.6 21 6.7 44 0
14:49 1019 30.09 848 25.04 31.3 88.4 17 3.9 39 0
14:50 1019 30.09 848 25.04 31.3 88.3 21 6.9 44.4 0
14:51 1019 30.09 848 25.04 31.3 88.3 19 5.4 41.7 0
14:52 1019 30.09 848 25.04 31.4 88.6 20 6.3 43.4 0
14:53 1019 30.09 848 25.04 31.5 88.7 20 6.1 43 0
14:54 1019 30.09 848 25.04 31.6 89 20 6.3 43.3 0
14:55 1018 30.06 848 25.04 31.6 88.9 18 4.8 40.6 0
14:56 1019 30.09 848 25.04 31.6 88.9 17 4.4 39.8 0
14:57 1019 30.09 848 25.04 31.6 88.9 18 5.1 41.1 0
14:58 1019 30.09 848 25.04 31.5 88.7 16 3.3 37.9 0
14:59 1019 30.09 848 25.04 31.5 88.6 21 6.6 43.9 0
15:00 1018 30.06 848 25.04 31.5 88.7 19 5.8 42.5 0
15:01 1019 30.09 848 25.04 31.4 88.5 21 6.5 43.7 0
15:02 1019 30.09 848 25.04 31.4 88.6 19 5.1 41.2 0
15:03 1019 30.09 848 25.04 31.4 88.4 20 6.2 43.1 0
15:04 1018 30.06 848 25.04 31.4 88.5 23 8.4 47.1 0
15:05 1018 30.06 848 25.04 31.5 88.6 19 5.3 41.6 0
15:06 1018 30.06 848 25.04 31.4 88.6 19 5.4 41.8 0
15:07 1018 30.06 848 25.04 31.4 88.5 20 6 42.9 0
15:08 1018 30.06 848 25.04 31.5 88.6 22 7.4 45.3 0
15:09 1018 30.06 848 25.04 31.5 88.7 21 6.7 44.1 0
15:10 1018 30.06 848 25.04 31.6 88.9 19 5.3 41.6 0
15:11 1018 30.06 848 25.04 31.4 88.5 21 6.6 43.9 0
15:12 1018 30.06 848 25.04 30.9 87.6 20 5.6 42.1 0
15:13 1018 30.06 848 25.04 30.4 86.6 20 5.6 42 0
15:14 1018 30.06 848 25.04 30.1 86.1 21 6 42.8 0
15:15 1018 30.06 848 25.04 30.2 86.4 22 6.2 43.2 0
15:16 1018 30.06 848 25.04 30.6 87 19 5 40.9 0
15:17 1018 30.06 848 25.04 30.8 87.5 23 7.9 46.3 0
15:18 1018 30.06 848 25.04 31 87.9 25 9.2 48.6 0
15:19 1018 30.06 848 25.04 31.2 88.1 19 5.4 41.7 0
15:20 1018 30.06 848 25.04 31.3 88.3 25 9.1 48.4 0
15:21 1018 30.06 848 25.04 31.4 88.5 22 7.7 45.9 0
15:22 1018 30.06 848 25.04 31.4 88.5 24 9 48.3 0
15:23 1018 30.06 848 25.04 31.1 87.9 23 7.9 46.3 0
15:24 1018 30.06 848 25.04 30.7 87.2 22 7.2 45 0
15:25 1018 30.06 848 25.04 30.3 86.5 23 7.1 44.9 0
15:26 1018 30.06 848 25.04 30 85.9 24 7.6 45.7 0
15:27 1018 30.06 848 25.04 29.8 85.6 24 7.5 45.5 0
15:28 1018 30.06 848 25.04 29.6 85.2 25 7.6 45.6 0
15:29 1018 30.06 848 25.04 29.4 84.9 26 8 46.4 0
15:30 1018 30.06 848 25.04 29.3 84.8 25 7.7 45.9 0
15:31 1018 30.06 848 25.04 29.2 84.5 26 7.8 46.1 0
15:32 1018 30.06 848 25.04 29.1 84.4 25 7.6 45.6 0
15:33 1018 30.06 848 25.04 29.1 84.5 26 7.9 46.1 0
15:34 1018 30.06 848 25.04 29.2 84.6 28 9.3 48.7 0
15:35 1018 30.06 848 25.04 29.3 84.7 26 8.2 46.8 0
15:36 1018 30.06 848 25.04 29.3 84.7 27 8.6 47.4 0
15:37 1018 30.06 848 25.04 29.1 84.5 27 8.4 47.1 0
15:38 1018 30.06 848 25.04 29 84.2 27 8.3 46.9 0
15:39 1018 30.06 848 25.04 28.9 84 27 8.4 47.1 0
15:40 1018 30.06 848 25.04 28.9 84.1 27 8.5 47.2 0
15:41 1018 30.06 848 25.04 28.9 84 26 7.9 46.3 0
15:42 1018 30.06 848 25.04 28.9 84 27 8.5 47.2 0
15:43 1018 30.06 848 25.04 28.8 83.9 28 9 48.2 0
15:44 1018 30.06 848 25.04 28.7 83.7 26 7.4 45.4 0
15:45 1018 30.06 848 25.04 28.7 83.6 26 7.5 45.6 0
15:46 1018 30.06 848 25.04 28.7 83.6 27 8 46.4 0
15:47 1018 30.06 848 25.04 28.7 83.7 27 8.4 47.1 0
15:48 1018 30.06 848 25.04 28.7 83.7 24 6.5 43.7 0
15:49 1018 30.06 848 25.04 28.7 83.7 23 6.2 43.1 0
15:50 1018 30.06 848 25.04 28.8 83.8 26 7.7 45.9 0
15:51 1018 30.06 848 25.04 28.6 83.6 29 9.2 48.5 0
15:52 1018 30.06 848 25.04 28.5 83.3 27 7.9 46.3 0
15:53 1019 30.09 848 25.04 28.5 83.3 28 8.3 46.9 0
15:54 1019 30.09 848 25.04 28.5 83.2 27 7.7 45.9 0
15:55 1018 30.06 848 25.04 28.5 83.2 28 8.7 47.6 0
15:56 1018 30.06 848 25.04 28.4 83.2 27 7.9 46.2 0
15:57 1018 30.06 848 25.04 28.4 83.1 29 8.8 47.9 0
15:58 1018 30.06 848 25.04 28.4 83.1 28 8.7 47.6 0
15:59 1018 30.06 848 25.04 28.4 83.1 25 6.7 44 0
16:00 1018 30.06 848 25.04 28.5 83.2 30 9.7 49.5 0
16:01 1018 30.06 848 25.04 28.4 83.2 31 9.9 49.9 0
16:02 1018 30.06 848 25.04 28.3 83 28 8.1 46.6 0
16:03 1018 30.06 848 25.04 28.3 83 28 8.3 46.9 0
16:04 1018 30.06 848 25.04 28.4 83.1 30 9.4 49 0
16:05 1018 30.06 848 25.04 28.4 83.1 28 8.6 47.5 0
16:06 1018 30.06 847 25.01 28.4 83.2 26 7.6 45.7 0
16:07 1018 30.06 847 25.01 28.4 83.1 28 8.3 47 0
16:08 1018 30.06 847 25.01 28.4 83 28 8.1 46.7 0
16:09 1018 30.06 847 25.01 28.4 83 30 9.5 49.2 0
16:10 1018 30.06 847 25.01 28.3 82.9 28 8.5 47.3 0
16:11 1018 30.06 847 25.01 28.2 82.8 30 9.3 48.8 0
16:12 1018 30.06 847 25.01 28.2 82.7 29 8.6 47.5 0
16:13 1018 30.06 847 25.01 28.2 82.8 29 8.6 47.5 0
16:14 1018 30.06 847 25.01 28.3 83 28 8.6 47.5 0
16:15 1018 30.06 847 25.01 28.4 83.2 28 8.4 47.2 0
16:16 1018 30.06 847 25.01 28.5 83.3 27 7.8 46 0
16:17 1018 30.06 847 25.01 28.6 83.4 26 7.2 45 0
16:18 1018 30.06 847 25.01 28.7 83.6 24 6.6 43.8 0
16:19 1018 30.06 847 25.01 28.7 83.7 23 6 42.9 0
16:20 1018 30.06 847 25.01 28.7 83.7 25 6.8 44.3 0
16:21 1018 30.06 847 25.01 28.8 83.9 24 6.9 44.3 0
16:22 1018 30.06 847 25.01 28.9 84 26 7.6 45.7 0
16:23 1018 30.06 847 25.01 28.9 84 28 8.6 47.6 0
16:24 1018 30.06 847 25.01 28.9 84.1 25 7.2 45 0
16:25 1018 30.06 847 25.01 28.9 84.1 25 7.1 44.9 0
16:26 1018 30.06 847 25.01 29 84.1 26 7.8 46.1 0
16:27 1018 30.06 847 25.01 28.9 84 28 8.7 47.7 0
16:28 1017 30.03 847 25.01 28.8 83.8 28 8.6 47.5 0
16:29 1017 30.03 846 24.98 28.8 83.8 26 7.4 45.4 0
16:30 1017 30.03 846 24.98 28.8 83.9 25 7 44.6 0
16:31 1017 30.03 846 24.98 28.9 84 24 6.6 43.9 0
16:32 1017 30.03 846 24.98 29.2 84.5 17 2 35.7 0
16:33 1017 30.03 846 24.98 29.8 85.6 14 -0.3 31.4 0
16:34 1017 30.03 846 24.98 30.1 86.3 18 3.4 38.1 0
16:35 1017 30.03 846 24.98 30 86 22 6.4 43.5 0
16:36 1017 30.03 846 24.98 29.6 85.4 23 6.5 43.8 0
16:37 1017 30.03 846 24.98 29.4 85 25 7.7 45.8 0
16:38 1017 30.03 846 24.98 29.2 84.5 29 9.5 49 0
16:39 1017 30.03 847 25.01 29 84.2 29 9.6 49.2 0
16:40 1017 30.03 847 25.01 28.9 84.1 29 9.3 48.7 0
16:41 1017 30.03 847 25.01 29 84.1 28 8.8 47.9 0
16:42 1017 30.03 847 25.01 29.1 84.3 28 8.8 47.9 0
16:43 1017 30.03 847 25.01 29.1 84.5 27 8.8 47.8 0
16:44 1017 30.03 847 25.01 29.3 84.7 24 6.7 44.1 0
16:45 1017 30.03 847 25.01 29.3 84.8 26 8.1 46.5 0
16:46 1017 30.03 847 25.01 29.3 84.8 24 7.1 44.7 0
16:47 1017 30.03 847 25.01 29.3 84.8 24 6.7 44.1 0
16:48 1017 30.03 847 25.01 29.2 84.6 26 8.1 46.6 0
16:49 1017 30.03 847 25.01 29.1 84.4 28 9.2 48.6 0
16:50 1017 30.03 847 25.01 29 84.1 25 7.2 44.9 0
16:51 1017 30.03 847 25.01 29 84.1 27 8.5 47.3 0
16:52 1017 30.03 847 25.01 28.9 84 26 8 46.5 0
16:53 1017 30.03 847 25.01 28.9 84.1 28 9 48.3 0
16:54 1017 30.03 847 25.01 29.1 84.4 26 8 46.4 0
16:55 1017 30.03 847 25.01 29.4 85 27 8.8 47.9 0
16:56 1017 30.03 847 25.01 29.6 85.4 27 8.7 47.7 0
16:57 1017 30.03 847 25.01 29.8 85.6 28 9.8 49.7 0
16:58 1017 30.03 847 25.01 29.9 85.8 23 7 44.6 0
16:59 1017 30.03 847 25.01 30 86.1 23 6.8 44.3 0
17:00 1017 30.03 847 25.01 30.3 86.5 23 7.3 45.2 0
17:01 1017 30.03 847 25.01 30.5 86.9 23 7.5 45.5 0
17:02 1017 30.03 847 25.01 30.6 87.1 22 7.1 44.8 0
17:03 1017 30.03 847 25.01 30.8 87.4 20 5.6 42 0
17:04 1017 30.03 847 25.01 30.9 87.6 20 5.7 42.2 0
17:05 1017 30.03 847 25.01 31 87.8 23 7.5 45.5 0
17:06 1017 30.03 847 25.01 31.1 88 22 7.1 44.7 0
17:07 1017 30.03 847 25.01 31.2 88.1 24 8.9 48 0
17:08 1017 30.03 847 25.01 31.3 88.3 21 6.4 43.5 0
17:09 1017 30.03 847 25.01 31.4 88.5 19 5.2 41.4 0
17:10 1017 30.03 847 25.01 31.5 88.7 18 4.4 39.8 0
17:11 1017 30.03 847 25.01 31.5 88.8 22 7.6 45.6 0
17:12 1017 30.03 847 25.01 31.7 89 23 8.1 46.7 0
17:13 1017 30.03 847 25.01 31.8 89.2 19 6 42.8 0
17:14 1017 30.03 847 25.01 31.7 89.1 20 6.5 43.6 0
17:15 1017 30.03 847 25.01 31.6 88.8 20 6 42.8 0
17:16 1017 30.03 847 25.01 31.4 88.5 21 6.6 43.8 0
17:17 1017 30.03 847 25.01 31.3 88.3 25 9.2 48.5 0
17:18 1017 30.03 847 25.01 31.1 88 26 9.9 49.8 0
17:19 1017 30.03 847 25.01 31 87.8 24 8.7 47.7 0
17:20 1018 30.06 847 25.01 31.1 88 30 11.6 52.9 0
17:21 1018 30.06 847 25.01 31.3 88.4 22 7.2 44.9 0
17:22 1018 30.06 847 25.01 31.6 88.9 26 10.1 50.1 0
17:23 1018 30.06 847 25.01 31.8 89.2 26 10 50 0
17:24 1018 30.06 847 25.01 31.7 89.1 29 12 53.6 0
17:25 1018 30.06 847 25.01 31.6 88.9 33 13.9 57.1 0
17:26 1018 30.06 847 25.01 31.5 88.7 29 11.8 53.3 0
17:27 1018 30.06 847 25.01 31.4 88.5 25 9.2 48.5 0
17:28 1018 30.06 847 25.01 31.2 88.1 23 7.8 46.1 0
17:29 1018 30.06 847 25.01 30.6 87.2 25 8.6 47.6 0
17:30 1018 30.06 847 25.01 30.2 86.4 26 8.8 47.8 0
17:31 1018 30.06 847 25.01 29.9 85.8 26 8.5 47.4 0
17:32 1018 30.06 847 25.01 29.6 85.3 26 8.2 46.8 0
17:33 1018 30.06 847 25.01 29.5 85 27 8.8 47.8 0
17:34 1018 30.06 847 25.01 29.1 84.4 28 9 48.2 0
17:35 1018 30.06 847 25.01 28.7 83.6 26 7.7 45.8 0
17:36 1018 30.06 847 25.01 28.5 83.3 26 7.7 45.8 0
17:37 1018 30.06 847 25.01 28.3 82.9 28 8.4 47 0
17:38 1018 30.06 847 25.01 28 82.5 29 8.8 47.9 0
17:39 1018 30.06 847 25.01 27.7 81.9 30 8.8 47.9 0
17:40 1018 30.06 847 25.01 27.4 81.4 30 8.6 47.5 0
17:41 1018 30.06 847 25.01 27.1 80.8 31 8.9 48 0
17:42 1018 30.06 847 25.01 26.8 80.3 31 8.8 47.8 0
17:43 1018 30.06 847 25.01 26.6 79.9 33 9.3 48.8 0
17:44 1018 30.06 847 25.01 26.4 79.5 34 9.3 48.8 0
17:45 1018 30.06 847 25.01 26.3 79.4 32 8.5 47.3 0
17:46 1018 30.06 847 25.01 26.3 79.4 32 8.7 47.7 0
17:47 1018 30.06 847 25.01 26.4 79.4 34 9.4 49 0
17:48 1018 30.06 847 25.01 26.3 79.3 32 8.6 47.6 0
17:49 1018 30.06 847 25.01 26.4 79.4 33 9.1 48.3 0
17:50 1018 30.06 847 25.01 26.4 79.5 32 8.6 47.5 0
17:51 1018 30.06 847 25.01 26.5 79.6 31 8.3 46.9 0
17:52 1018 30.06 847 25.01 26.5 79.7 33 9 48.3 0
17:53 1018 30.06 847 25.01 26.5 79.7 31 8.5 47.2 0
17:54 1018 30.06 847 25.01 26.5 79.7 33 9.1 48.4 0
17:55 1018 30.06 847 25.01 26.4 79.5 31 8.3 47 0
17:56 1018 30.06 848 25.04 26.4 79.5 32 8.4 47.1 0
17:57 1018 30.06 847 25.01 26.4 79.5 31 7.9 46.3 0
17:58 1018 30.06 847 25.01 26.5 79.6 30 8 46.4 0
17:59 1018 30.06 847 25.01 26.5 79.7 30 7.9 46.2 0
18:00 1018 30.06 848 25.04 26.5 79.8 31 8.1 46.6 0
18:01 1018 30.06 848 25.04 26.6 79.8 31 8.1 46.7 0
18:02 1018 30.06 848 25.04 26.5 79.8 31 8.2 46.7 0
18:03 1018 30.06 848 25.04 26.5 79.8 30 7.9 46.3 0
18:04 1018 30.06 848 25.04 26.4 79.6 32 8.5 47.3 0
18:05 1018 30.06 848 25.04 26.4 79.6 31 8.2 46.8 0
18:06 1018 30.06 848 25.04 26.3 79.4 32 8.7 47.7 0
18:07 1018 30.06 848 25.04 26.2 79.2 33 9.1 48.4 0
18:08 1018 30.06 848 25.04 26.1 78.9 33 8.9 48 0
18:09 1018 30.06 848 25.04 26 78.8 33 8.5 47.4 0
18:10 1018 30.06 848 25.04 26 78.9 32 8.2 46.7 0
18:11 1018 30.06 848 25.04 26 78.9 32 8.3 47 0
18:12 1018 30.06 848 25.04 26.1 78.9 32 8.3 46.9 0
18:13 1018 30.06 848 25.04 26.1 78.9 34 9.2 48.5 0
18:14 1018 30.06 848 25.04 25.9 78.7 33 8.7 47.7 0
18:15 1018 30.06 848 25.04 25.8 78.4 35 9.3 48.8 0
18:16 1018 30.06 848 25.04 25.7 78.3 35 9.2 48.6 0
18:17 1019 30.09 848 25.04 25.7 78.3 32 8.2 46.8 0
18:18 1018 30.06 848 25.04 25.8 78.5 34 9 48.1 0
18:19 1018 30.06 848 25.04 25.8 78.5 31 7.8 46.1 0
18:20 1018 30.06 848 25.04 25.9 78.5 33 8.8 47.9 0
18:21 1018 30.06 848 25.04 25.8 78.5 33 8.6 47.5 0
18:22 1018 30.06 848 25.04 25.8 78.4 32 8.2 46.8 0
18:23 1018 30.06 848 25.04 25.8 78.4 34 8.9 48.1 0
18:24 1018 30.06 848 25.04 25.8 78.4 33 8.3 47 0
18:25 1018 30.06 848 25.04 25.8 78.4 33 8.6 47.5 0
18:26 1018 30.06 848 25.04 25.8 78.4 34 8.8 47.8 0
18:27 1018 30.06 848 25.04 25.7 78.2 36 9.6 49.3 0
18:28 1018 30.06 848 25.04 25.7 78.2 37 10 50 0
18:29 1018 30.06 848 25.04 25.6 78 35 9.4 48.8 0
18:30 1018 30.06 848 25.04 25.5 78 36 9.5 49.2 0
18:31 1018 30.06 848 25.04 25.4 77.7 35 9.3 48.7 0
18:32 1018 30.06 848 25.04 25.3 77.6 35 9 48.2 0
18:33 1018 30.06 848 25.04 25.3 77.5 35 8.9 48.1 0
18:34 1018 30.06 848 25.04 25.2 77.4 35 9.1 48.3 0
18:35 1018 30.06 848 25.04 25.2 77.4 36 9.1 48.4 0
18:36 1018 30.06 848 25.04 25.1 77.2 34 8.6 47.5 0
18:37 1018 30.06 848 25.04 25.2 77.4 35 8.8 47.8 0
18:38 1018 30.06 848 25.04 25.3 77.5 33 8 46.4 0
18:39 1018 30.06 848 25.04 25.3 77.6 33 8.1 46.6 0
18:40 1018 30.06 848 25.04 25.4 77.8 34 8.7 47.7 0
18:41 1018 30.06 848 25.04 25.5 77.9 34 8.6 47.4 0
18:42 1018 30.06 848 25.04 25.6 78 30 7.1 44.8 0
18:43 1018 30.06 848 25.04 25.7 78.3 31 7.6 45.6 0
18:44 1018 30.06 848 25.04 25.9 78.6 31 7.7 45.9 0
18:45 1018 30.06 848 25.04 26 78.9 30 7.5 45.4 0
18:46 1019 30.09 848 25.04 26.2 79.2 30 7.7 45.9 0
18:47 1018 30.06 848 25.04 26.3 79.3 31 8.2 46.7 0
18:48 1018 30.06 848 25.04 26.3 79.4 29 7.2 44.9 0
18:49 1018 30.06 848 25.04 26.4 79.6 31 8 46.4 0
18:50 1018 30.06 848 25.04 26.5 79.7 30 7.6 45.7 0
18:51 1018 30.06 848 25.04 26.6 79.8 30 8 46.5 0
18:52 1019 30.09 848 25.04 26.6 79.8 31 8.2 46.8 0
18:53 1019 30.09 848 25.04 26.6 79.8 30 7.9 46.2 0
18:54 1019 30.09 848 25.04 26.6 79.9 30 7.8 46 0
18:55 1019 30.09 848 25.04 26.6 80 30 8.1 46.5 0
18:56 1019 30.09 848 25.04 26.7 80 29 7.4 45.3 0
18:57 1018 30.06 848 25.04 26.8 80.2 27 6.7 44.1 0
18:58 1018 30.06 848 25.04 26.9 80.4 26 6.2 43.1 0
18:59 1018 30.06 848 25.04 27 80.7 27 6.6 43.8 0
19:00 1018 30.06 847 25.01 27.1 80.8 27 7 44.6 0
19:01 1018 30.06 847 25.01 27.2 81 28 7.2 45 0
19:02 1018 30.06 847 25.01 27.2 81 28 7.2 44.9 0
19:03 1018 30.06 847 25.01 27.3 81.1 28 7.2 45 0
19:04 1018 30.06 847 25.01 27.3 81.1 27 6.8 44.2 0
19:05 1018 30.06 847 25.01 27.3 81.2 26 6.5 43.7 0
19:06 1018 30.06 847 25.01 27.4 81.3 27 6.9 44.4 0
19:07 1018 30.06 847 25.01 27.4 81.4 27 6.8 44.2 0
19:08 1018 30.06 847 25.01 27.4 81.4 25 5.9 42.6 0
19:09 1018 30.06 847 25.01 27.6 81.6 25 6.1 42.9 0
19:10 1018 30.06 847 25.01 27.7 81.8 25 6 42.7 0
19:11 1018 30.06 847 25.01 27.7 81.9 25 6.2 43.2 0
19:12 1018 30.06 847 25.01 27.7 81.8 24 5.6 42.1 0
19:13 1018 30.06 847 25.01 27.7 81.9 25 6 42.8 0
19:14 1018 30.06 847 25.01 27.8 82 25 6.3 43.3 0
19:15 1018 30.06 847 25.01 27.7 81.9 24 5.9 42.6 0
19:16 1018 30.06 847 25.01 27.7 81.9 24 5.5 42 0
19:17 1018 30.06 847 25.01 27.8 82 23 5.4 41.6 0
19:18 1018 30.06 847 25.01 27.8 82.1 24 5.8 42.4 0
19:19 1018 30.06 847 25.01 27.8 82.1 24 5.7 42.3 0
19:20 1018 30.06 847 25.01 27.8 82 24 5.8 42.4 0
19:21 1018 30.06 847 25.01 27.9 82.1 24 5.8 42.4 0
19:22 1018 30.06 847 25.01 27.8 82.1 24 5.7 42.2 0
19:23 1018 30.06 847 25.01 27.8 82.1 23 5.3 41.5 0
19:24 1018 30.06 847 25.01 27.9 82.2 24 5.8 42.5 0
19:25 1018 30.06 847 25.01 27.9 82.2 24 6 42.8 0
19:26 1018 30.06 847 25.01 27.8 82.1 24 6 42.7 0
19:27 1018 30.06 847 25.01 27.8 82 25 6.1 42.9 0
19:28 1018 30.06 847 25.01 27.7 81.8 27 7.1 44.7 0
19:29 1018 30.06 847 25.01 27.3 81.2 28 7.4 45.3 0
19:30 1018 30.06 847 25.01 27.1 80.7 29 7.6 45.7 0
19:31 1018 30.06 847 25.01 26.9 80.5 30 8.4 47 0
19:32 1018 30.06 847 25.01 26.6 79.9 31 8.5 47.3 0
19:33 1018 30.06 847 25.01 26.4 79.5 31 8 46.5 0
19:34 1018 30.06 847 25.01 26.2 79.1 31 8.2 46.7 0
19:35 1018 30.06 847 25.01 26 78.8 29 6.7 44.1 0
19:36 1017 30.03 847 25.01 26.1 79 28 6.3 43.3 0
19:37 1018 30.06 847 25.01 26.3 79.3 29 6.9 44.4 0
19:38 1017 30.03 847 25.01 26.2 79.2 28 6.7 44.1 0
19:39 1017 30.03 847 25.01 26.2 79.2 29 7 44.6 0
19:40 1017 30.03 847 25.01 26.2 79.2 29 6.9 44.5 0
19:41 1017 30.03 847 25.01 26.2 79.2 29 7 44.6 0
19:42 1017 30.03 847 25.01 26.2 79.2 28 6.8 44.2 0
19:43 1017 30.03 847 25.01 26.3 79.3 29 7 44.7 0
19:44 1018 30.06 847 25.01 26.2 79.1 29 7.2 44.9 0
19:45 1018 30.06 847 25.01 26.1 79 30 7.3 45.1 0
19:46 1018 30.06 847 25.01 26 78.7 31 8 46.4 0
19:47 1018 30.06 847 25.01 25.7 78.2 32 8.2 46.7 0
19:48 1018 30.06 847 25.01 25.3 77.6 35 9.2 48.6 0
19:49 1018 30.06 847 25.01 25 77 34 8.4 47.2 0
19:50 1018 30.06 847 25.01 24.9 76.8 36 9 48.2 0
19:51 1018 30.06 847 25.01 24.7 76.4 36 9 48.2 0
19:52 1018 30.06 847 25.01 24.6 76.2 34 7.9 46.3 0
19:53 1018 30.06 847 25.01 24.6 76.2 36 8.7 47.6 0
19:54 1018 30.06 847 25.01 24.5 76.1 37 9.2 48.5 0
19:55 1018 30.06 847 25.01 24.3 75.8 37 8.8 47.9 0
19:56 1018 30.06 847 25.01 24.3 75.7 36 8.3 46.9 0
19:57 1018 30.06 847 25.01 24.3 75.8 36 8.6 47.5 0
19:58 1018 30.06 847 25.01 24.3 75.7 37 8.8 47.9 0
19:59 1018 30.06 847 25.01 24.2 75.6 37 8.9 48.1 0
20:00 1018 30.06 847 25.01 24.2 75.5 37 8.9 48 0
20:01 1018 30.06 847 25.01 24.1 75.4 37 8.7 47.7 0
20:02 1018 30.06 847 25.01 24.1 75.4 37 8.7 47.6 0
20:03 1018 30.06 847 25.01 24.1 75.4 36 8.4 47.1 0
20:04 1018 30.06 847 25.01 24.2 75.5 37 8.6 47.6 0
20:05 1018 30.06 847 25.01 24.2 75.5 37 8.7 47.6 0
20:06 1018 30.06 847 25.01 24.1 75.4 38 9 48.1 0
20:07 1018 30.06 847 25.01 24 75.3 38 9.1 48.5 0
20:08 1018 30.06 847 25.01 23.9 75.1 38 8.9 48 0
20:09 1018 30.06 847 25.01 23.9 75.1 38 9.1 48.4 0
20:10 1018 30.06 847 25.01 23.9 75 38 8.9 48 0
20:11 1018 30.06 847 25.01 23.9 74.9 37 8.6 47.5 0
20:12 1018 30.06 847 25.01 23.9 75 38 9 48.2 0
20:13 1018 30.06 847 25.01 23.8 74.9 38 8.9 48.1 0
20:14 1018 30.06 847 25.01 23.9 75 39 9.1 48.4 0
20:15 1018 30.06 847 25.01 23.8 74.8 40 9.5 49.2 0
20:16 1018 30.06 847 25.01 23.7 74.6 40 9.5 49.1 0
20:17 1018 30.06 847 25.01 23.6 74.5 41 9.8 49.6 0
20:18 1018 30.06 847 25.01 23.5 74.2 40 9.4 48.9 0
20:19 1018 30.06 847 25.01 23.4 74.2 41 9.7 49.4 0
20:20 1018 30.06 847 25.01 23.4 74 41 9.4 48.9 0
20:21 1018 30.06 847 25.01 23.4 74.1 40 9.3 48.7 0
20:22 1018 30.06 847 25.01 23.4 74 41 9.5 49 0
20:23 1018 30.06 847 25.01 23.4 74 41 9.4 48.9 0
20:24 1018 30.06 847 25.01 23.4 74 40 9.3 48.8 0
20:25 1018 30.06 847 25.01 23.3 74 41 9.6 49.3 0
20:26 1018 30.06 847 25.01 23.3 73.9 42 9.8 49.6 0
20:27 1018 30.06 847 25.01 23.2 73.7 42 9.7 49.5 0
20:28 1018 30.06 847 25.01 23.2 73.7 39 8.5 47.4 0
20:29 1018 30.06 847 25.01 23.4 74.1 38 8.4 47.2 0
20:30 1018 30.06 847 25.01 23.5 74.4 38 8.8 47.8 0
20:31 1018 30.06 847 25.01 23.6 74.4 39 9.1 48.3 0
20:32 1018 30.06 847 25.01 23.5 74.2 43 10.2 50.4 0
20:33 1018 30.06 847 25.01 23.2 73.8 45 10.7 51.3 0
20:34 1018 30.06 847 25.01 22.9 73.2 45 10.6 51 0
20:35 1018 30.06 847 25.01 22.7 72.9 45 10.4 50.7 0
20:36 1018 30.06 847 25.01 22.6 72.7 45 10.2 50.4 0
20:37 1018 30.06 847 25.01 22.5 72.5 44 9.9 49.9 0
20:38 1018 30.06 847 25.01 22.4 72.4 45 10 50 0
20:39 1018 30.06 847 25.01 22.4 72.3 45 10 50 0
20:40 1018 30.06 847 25.01 22.3 72.1 45 10 50 0
20:41 1018 30.06 847 25.01 22.2 71.9 45 10 50 0
20:42 1018 30.06 847 25.01 22.1 71.8 46 9.9 49.9 0
20:43 1018 30.06 847 25.01 22 71.7 45 9.7 49.5 0
20:44 1018 30.06 847 25.01 22 71.6 46 9.9 49.9 0
20:45 1018 30.06 847 25.01 21.9 71.3 47 10.2 50.3 0
20:46 1018 30.06 847 25.01 21.7 71 47 10.2 50.3 0
20:47 1018 30.06 847 25.01 21.5 70.7 48 10.3 50.5 0
20:48 1018 30.06 847 25.01 21.3 70.3 49 10.2 50.4 0
20:49 1018 30.06 847 25.01 21.2 70.2 48 10 50 0
20:50 1018 30.06 847 25.01 21.2 70.2 47 9.6 49.2 0
20:51 1018 30.06 847 25.01 21.4 70.6 45 9.3 48.7 0
20:52 1018 30.06 847 25.01 21.7 71 45 9.4 48.8 0
20:53 1018 30.06 847 25.01 21.8 71.2 45 9.6 49.4 0
20:54 1018 30.06 847 25.01 21.7 71.1 46 9.7 49.4 0
20:55 1018 30.06 847 25.01 21.6 70.8 47 9.8 49.7 0
20:56 1018 30.06 847 25.01 21.3 70.4 46 9.6 49.2 0
20:57 1018 30.06 847 25.01 21.1 70.1 48 9.8 49.6 0
20:58 1018 30.06 847 25.01 21 69.8 47 9.6 49.2 0
20:59 1018 30.06 847 25.01 20.9 69.6 48 9.5 49.1 0
21:00 1018 30.06 847 25.01 20.8 69.5 47 9.4 48.9 0
21:01 1018 30.06 847 25.01 20.8 69.4 48 9.5 49 0
21:02 1018 30.06 848 25.04 20.7 69.2 48 9.4 49 0
21:03 1018 30.06 847 25.01 20.5 68.9 49 9.6 49.3 0
21:04 1018 30.06 847 25.01 20.3 68.6 50 9.7 49.5 0
21:05 1018 30.06 848 25.04 20.2 68.3 50 9.6 49.2 0
21:06 1018 30.06 848 25.04 20.2 68.3 50 9.4 49 0
21:07 1018 30.06 848 25.04 20.3 68.5 49 9.5 49.1 0
21:08 1018 30.06 848 25.04 20.3 68.5 49 9.4 49 0
21:09 1018 30.06 848 25.04 20.2 68.3 50 9.6 49.3 0
21:10 1018 30.06 847 25.01 20 68 51 9.6 49.3 0
21:11 1018 30.06 848 25.04 19.8 67.7 51 9.6 49.2 0
21:12 1018 30.06 848 25.04 19.7 67.5 51 9.4 49 0
21:13 1018 30.06 847 25.01 19.7 67.4 50 9.1 48.3 0
21:14 1018 30.06 848 25.04 19.8 67.6 49 9 48.2 0
21:15 1018 30.06 848 25.04 19.8 67.7 50 9.1 48.3 0
21:16 1018 30.06 848 25.04 19.7 67.5 50 9.3 48.7 0
21:17 1018 30.06 848 25.04 19.5 67.2 52 9.4 48.9 0
21:18 1018 30.06 848 25.04 19.4 66.8 52 9.5 49.1 0
21:19 1018 30.06 848 25.04 19.2 66.5 53 9.6 49.2 0
21:20 1018 30.06 848 25.04 19 66.2 51 8.8 47.9 0
21:21 1019 30.09 848 25.04 19 66.1 51 8.6 47.5 0
21:22 1019 30.09 848 25.04 19.2 66.5 46 7.5 45.5 0
21:23 1019 30.09 848 25.04 19.7 67.5 43 6.9 44.5 0
21:24 1019 30.09 848 25.04 20.5 68.9 41 7 44.7 0
21:25 1019 30.09 848 25.04 21.1 70.1 39 7 44.6 0
21:26 1019 30.09 848 25.04 21.5 70.8 39 7.2 45 0
21:27 1019 30.09 848 25.04 21.9 71.3 39 7.4 45.4 0
21:28 1019 30.09 848 25.04 22 71.5 38 7.3 45.2 0
21:29 1019 30.09 848 25.04 22 71.6 39 7.5 45.5 0
21:30 1019 30.09 848 25.04 21.8 71.3 42 8.6 47.5 0
21:31 1019 30.09 848 25.04 21.2 70.1 46 9.1 48.4 0
21:32 1019 30.09 848 25.04 20.6 69 46 8.7 47.7 0
21:33 1019 30.09 848 25.04 20.3 68.6 46 8.6 47.6 0
21:34 1019 30.09 848 25.04 20.2 68.3 47 8.6 47.5 0
21:35 1019 30.09 848 25.04 20.1 68.2 47 8.4 47.2 0
21:36 1019 30.09 848 25.04 20 68 50 9.3 48.7 0
21:37 1019 30.09 848 25.04 19.6 67.3 49 8.9 47.9 0
21:38 1019 30.09 848 25.04 19.3 66.8 51 9.1 48.3 0
21:39 1019 30.09 848 25.04 19 66.2 52 9.2 48.5 0
21:40 1019 30.09 848 25.04 18.8 65.9 53 9.1 48.4 0
21:41 1019 30.09 848 25.04 18.6 65.6 54 9.2 48.5 0
21:42 1019 30.09 848 25.04 18.4 65.2 55 9.4 48.8 0
21:43 1019 30.09 848 25.04 18.2 64.7 56 9.3 48.8 0
21:44 1019 30.09 848 25.04 18 64.4 56 9.2 48.6 0
21:45 1019 30.09 848 25.04 17.9 64.2 57 9.3 48.7 0
21:46 1019 30.09 848 25.04 17.8 64.1 57 9.3 48.7 0
21:47 1019 30.09 848 25.04 17.8 64.1 56 9.1 48.5 0
21:48 1019 30.09 848 25.04 18 64.4 53 8.3 47 0
21:49 1019 30.09 848 25.04 18.5 65.4 50 7.9 46.3 0
21:50 1019 30.09 849 25.07 19.1 66.4 55 10 50 0
21:51 1020 30.12 849 25.07 18.8 65.8 57 10.3 50.6 0
21:52 1020 30.12 849 25.07 18.5 65.2 56 9.5 49.1 0
21:53 1020 30.12 849 25.07 18.5 65.2 57 9.8 49.6 0
21:54 1020 30.12 849 25.07 18.4 65.1 57 9.9 49.9 0
21:55 1020 30.12 849 25.07 18.3 64.9 58 10 49.9 0
21:56 1020 30.12 849 25.07 18.2 64.7 58 10 50 0
21:57 1020 30.12 849 25.07 18 64.4 59 9.9 49.9 0
21:58 1020 30.12 849 25.07 17.9 64.3 60 10.1 50.3 0
21:59 1020 30.12 849 25.07 17.8 64 61 10.2 50.4 0
22:00 1020 30.12 849 25.07 17.7 63.8 62 10.4 50.6 0
22:01 1020 30.12 849 25.07 17.6 63.7 61 10.1 50.2 0
22:02 1020 30.12 849 25.07 17.6 63.7 61 10 50.1 0
22:03 1020 30.12 849 25.07 17.8 64 60 9.9 49.8 0
22:04 1020 30.12 849 25.07 17.9 64.2 60 10.2 50.4 0
22:05 1020 30.12 849 25.07 18 64.3 61 10.3 50.6 0
22:06 1020 30.12 849 25.07 18 64.4 59 9.9 49.8 0
22:07 1020 30.12 849 25.07 18.2 64.7 59 10.2 50.3 0
22:08 1020 30.12 849 25.07 18.2 64.7 59 10.2 50.3 0
22:09 1020 30.12 849 25.07 18.3 64.9 58 9.9 49.8 0
22:10 1020 30.12 849 25.07 18.4 65 56 9.6 49.3 0
22:11 1020 30.12 849 25.07 18.7 65.6 54 9.4 48.9 0
22:12 1020 30.12 849 25.07 19.1 66.3 51 8.9 48.1 0
22:13 1020 30.12 849 25.07 19.4 66.9 50 8.8 47.8 0
22:14 1020 30.12 849 25.07 19.7 67.5 49 8.7 47.7 0
22:15 1020 30.12 849 25.07 19.9 67.8 49 8.9 48.1 0
22:16 1020 30.12 849 25.07 20 68.1 47 8.6 47.6 0
22:17 1020 30.12 849 25.07 20.3 68.5 46 8.5 47.3 0
22:18 1020 30.12 849 25.07 20.4 68.8 46 8.4 47.1 0
22:19 1020 30.12 849 25.07 20.6 69 45 8.4 47.2 0
22:20 1020 30.12 849 25.07 20.8 69.4 44 8.1 46.5 0
22:21 1020 30.12 849 25.07 21.1 70 42 8 46.4 0
22:22 1020 30.12 849 25.07 21.4 70.6 41 7.8 46 0
22:23 1020 30.12 849 25.07 21.7 71 41 8 46.3 0
22:24 1020 30.12 849 25.07 21.9 71.4 41 8.3 46.9 0
22:25 1020 30.12 849 25.07 22 71.7 40 7.9 46.2 0
22:26 1020 30.12 849 25.07 22.2 72 38 7.4 45.4 0
22:27 1020 30.12 849 25.07 22.6 72.6 39 8.1 46.6 0
22:28 1020 30.12 849 25.07 22.7 72.9 38 7.9 46.1 0
22:29 1020 30.12 849 25.07 22.9 73.2 37 7.5 45.6 0
22:30 1020 30.12 849 25.07 23.1 73.6 36 7.6 45.7 0
22:31 1020 30.12 849 25.07 23.4 74.1 35 7.4 45.4 0
22:32 1020 30.12 849 25.07 23.6 74.4 36 7.7 45.8 0
22:33 1020 30.12 849 25.07 23.7 74.6 34 7.3 45.1 0
22:34 1020 30.12 849 25.07 23.8 74.8 35 7.6 45.7 0
22:35 1020 30.12 849 25.07 23.9 74.9 34 7.1 44.8 0
22:36 1020 30.12 849 25.07 24 75.1 35 7.6 45.6 0
22:37 1020 30.12 850 25.1 23.9 75.1 35 7.8 46.1 0
22:38 1020 30.12 850 25.1 23.9 74.9 35 7.8 46.1 0
22:39 1020 30.12 850 25.1 23.8 74.9 35 7.8 46.1 0
22:40 1020 30.12 850 25.1 23.7 74.7 36 8.1 46.6 0
22:41 1020 30.12 850 25.1 23.7 74.6 37 8.2 46.8 0
22:42 1020 30.12 850 25.1 23.5 74.3 37 8.3 46.9 0
22:43 1020 30.12 850 25.1 23.4 74.1 38 8.5 47.4 0
22:44 1020 30.12 850 25.1 23.3 74 38 8.5 47.3 0
22:45 1020 30.12 850 25.1 23.3 73.9 38 8.4 47.1 0
22:46 1020 30.12 850 25.1 23.2 73.7 38 8.3 47 0
22:47 1021 30.15 850 25.1 23.1 73.6 38 8.4 47.1 0
22:48 1021 30.15 850 25.1 23.1 73.6 37 7.7 45.9 0
22:49 1021 30.15 850 25.1 23.1 73.6 37 7.8 46.1 0
22:50 1021 30.15 850 25.1 23.1 73.5 37 7.9 46.2 0
22:51 1021 30.15 850 25.1 22.9 73.3 38 8 46.5 0
22:52 1020 30.12 850 25.1 22.8 73.1 38 7.9 46.1 0
22:53 1020 30.12 850 25.1 22.7 72.9 38 7.8 46.1 0
22:54 1020 30.12 850 25.1 22.7 72.8 38 7.8 46 0
22:55 1020 30.12 850 25.1 22.6 72.7 39 8 46.3 0
22:56 1020 30.12 850 25.1 22.6 72.6 39 8 46.4 0
22:57 1020 30.12 850 25.1 22.5 72.5 39 8.1 46.5 0
22:58 1020 30.12 850 25.1 22.5 72.4 39 8.1 46.5 0
22:59 1020 30.12 849 25.07 22.5 72.4 39 8 46.5 0
23:00 1020 30.12 849 25.07 22.4 72.4 40 8.2 46.8 0
23:01 1020 30.12 849 25.07 22.4 72.2 40 8.2 46.8 0
23:02 1020 30.12 850 25.1 22.4 72.3 40 8.2 46.8 0
23:03 1020 30.12 850 25.1 22.4 72.3 39 8.1 46.6 0
23:04 1020 30.12 850 25.1 22.4 72.4 39 8 46.4 0
23:05 1020 30.12 850 25.1 22.4 72.4 40 8.2 46.7 0
23:06 1020 30.12 850 25.1 22.4 72.4 38 7.4 45.4 0
23:07 1020 30.12 850 25.1 22.5 72.5 38 7.5 45.5 0
23:08 1020 30.12 850 25.1 22.7 72.8 37 7.6 45.7 0
23:09 1020 30.12 850 25.1 22.8 73 36 7.3 45.2 0
23:10 1020 30.12 850 25.1 23 73.3 35 6.8 44.3 0
23:11 1020 30.12 850 25.1 23.2 73.7 34 6.7 44 0
23:12 1020 30.12 850 25.1 23.4 74.1 36 7.5 45.5 0
23:13 1021 30.15 850 25.1 23.4 74.2 36 7.5 45.6 0
23:14 1021 30.15 850 25.1 23.3 74 37 7.9 46.3 0
23:15 1021 30.15 850 25.1 23.2 73.8 37 7.8 46.1 0
23:16 1021 30.15 850 25.1 23.1 73.6 39 8.5 47.3 0
23:17 1021 30.15 850 25.1 22.9 73.2 40 8.8 47.8 0
23:18 1021 30.15 850 25.1 22.6 72.6 42 9.1 48.3 0
23:19 1021 30.15 850 25.1 22.3 72.1 43 9.4 48.9 0
23:20 1021 30.15 850 25.1 22 71.6 44 9.3 48.7 0
23:21 1021 30.15 850 25.1 21.8 71.3 43 8.9 48 0
23:22 1021 30.15 850 25.1 21.8 71.2 44 9.2 48.5 0
23:23 1021 30.15 850 25.1 21.7 71 45 9.3 48.8 0
23:24 1021 30.15 850 25.1 21.5 70.7 44 9 48.3 0
23:25 1021 30.15 850 25.1 21.5 70.8 43 8.5 47.4 0
23:26 1021 30.15 850 25.1 21.7 71 41 8.2 46.7 0
23:27 1021 30.15 850 25.1 21.9 71.3 41 8.2 46.7 0
23:28 1021 30.15 850 25.1 22 71.6 41 8.3 46.9 0
23:29 1021 30.15 850 25.1 22 71.7 41 8.3 47 0
23:30 1021 30.15 850 25.1 22.2 71.9 38 7.2 45 0
23:31 1021 30.15 850 25.1 22.5 72.4 39 7.9 46.3 0
23:32 1021 30.15 850 25.1 22.6 72.6 39 8 46.4 0
23:33 1021 30.15 850 25.1 22.6 72.7 40 8.4 47.2 0
23:34 1021 30.15 850 25.1 22.4 72.4 41 8.6 47.5 0
23:35 1020 30.12 850 25.1 22.3 72.2 42 8.9 48 0
23:36 1020 30.12 850 25.1 22.2 71.9 41 8.5 47.3 0
23:37 1020 30.12 850 25.1 22.1 71.8 42 8.7 47.7 0
23:38 1020 30.12 849 25.07 22 71.7 42 8.8 47.9 0
23:39 1020 30.12 849 25.07 22 71.5 41 8.5 47.2 0
23:40 1020 30.12 849 25.07 22 71.6 40 8 46.4 0
23:41 1020 30.12 849 25.07 22.1 71.7 41 8.4 47.1 0
23:42 1020 30.12 849 25.07 22.1 71.8 43 9.1 48.3 0
23:43 1020 30.12 849 25.07 22 71.6 43 9 48.2 0
23:44 1020 30.12 849 25.07 21.8 71.2 44 9.1 48.4 0
23:45 1020 30.12 849 25.07 21.6 71 45 9.4 48.9 0
23:46 1020 30.12 849 25.07 21.5 70.7 43 8.5 47.4 0
23:47 1020 30.12 849 25.07 21.4 70.6 43 8.5 47.3 0
23:48 1020 30.12 849 25.07 21.5 70.6 43 8.5 47.3 0
23:49 1020 30.12 849 25.07 21.4 70.6 43 8.6 47.4 0
23:50 1020 30.12 849 25.07 21.4 70.5 44 8.9 48.1 0
23:51 1020 30.12 849 25.07 21.2 70.2 45 9 48.3 0
23:52 1020 30.12 849 25.07 21.1 70 46 9.1 48.4 0
23:53 1020 30.12 849 25.07 21 69.7 46 9 48.3 0
23:54 1020 30.12 849 25.07 20.9 69.6 47 9.2 48.6 0
23:55 1020 30.12 849 25.07 20.8 69.4 47 9.2 48.5 0
23:56 1020 30.12 849 25.07 20.7 69.2 48 9.4 48.8 0
23:57 1020 30.12 849 25.07 20.6 69 48 9.4 48.8 0
23:58 1020 30.12 849 25.07 20.4 68.8 48 9.2 48.5 0
23:59 1020 30.12 849 25.07 20.3 68.5 49 9.4 48.8 0
24:00 1020 30.12 849 25.07 20.1 68.2 50 9.6 49.3 0